^^
B2 Weather Station Historical Data
Daily Summary for January 2, 2018 Units:  Both    English   Metric
Daily Weekly Monthly Yearly Custom
  High: Low: Average:
Temperature: 5.7 °F /  -14.6 °C -13.8 °F /  -25.4 °C -4.3 °F /  -20.2 °C
Dew Point: -0.2 °F /  -17.9 °C -18.2 °F /  -27.9 °C -9.6 °F /  -23.1 °C
Humidity: 82% 71% 78%
Wind Speed: 16.1mph /  25.9km/h - 7.1mph /  11.4km/h
Wind Gust: 16.1mph /  25.9km/h - -
Wind- - SW
Pressure: 30.79 in /  1042.5 hPa 30.20 in /  1022.6 hPa -
Precipitation: 0.00 in /  0 mm    
Historical Graphs
 
 
Tabular Data for January 2, 2018
Time Temperature Dew Point Pressure Wind Wind Speed Wind Gust Humidity Rainfall Rate (Hourly) solar
00:00 -10.7 °F /  -23.7 °C -15.2 °F /  -26.2 °C 30.79in /  1042.5hPa WSW 3.5mph /  5.6km/h 3.5mph /  5.6km/h 80% 0.00in /  0mm 0.0 W/m2
00:04 -10.6 °F /  -23.7 °C -15.1 °F /  -26.2 °C 30.79in /  1042.5hPa WSW 4.6mph /  7.4km/h 4.6mph /  7.4km/h 80% 0.00in /  0mm 0.0 W/m2
00:12 -10.5 °F /  -23.6 °C -15.0 °F /  -26.1 °C 30.79in /  1042.5hPa West 8.1mph /  13km/h 8.1mph /  13km/h 80% 0.00in /  0mm 0.0 W/m2
00:14 -10.5 °F /  -23.6 °C -15.0 °F /  -26.1 °C 30.79in /  1042.5hPa WSW 3.5mph /  5.6km/h 4.3mph /  6.9km/h 80% 0.00in /  0mm 0.0 W/m2
00:17 -10.4 °F /  -23.6 °C -14.9 °F /  -26.1 °C 30.78in /  1042.2hPa West 8.1mph /  13km/h 8.1mph /  13km/h 80% 0.00in /  0mm 0.0 W/m2
00:21 -10.2 °F /  -23.4 °C -14.4 °F /  -25.8 °C 30.79in /  1042.5hPa WSW 4.6mph /  7.4km/h 4.6mph /  7.4km/h 81% 0.00in /  0mm 0.0 W/m2
00:25 -10.2 °F /  -23.4 °C -14.4 °F /  -25.8 °C 30.79in /  1042.5hPa WSW 8.1mph /  13km/h 8.1mph /  13km/h 81% 0.00in /  0mm 0.0 W/m2
00:27 -10.2 °F /  -23.4 °C -14.4 °F /  -25.8 °C 30.79in /  1042.5hPa WSW 5.8mph /  9.3km/h 5.8mph /  9.3km/h 81% 0.00in /  0mm 0.0 W/m2
00:32 -10.0 °F /  -23.3 °C -14.2 °F /  -25.7 °C 30.78in /  1042.2hPa WSW 6.9mph /  11.1km/h 6.9mph /  11.1km/h 81% 0.00in /  0mm 0.0 W/m2
00:41 -9.9 °F /  -23.3 °C -14.1 °F /  -25.6 °C 30.78in /  1042.2hPa WSW 6.0mph /  9.7km/h 6.0mph /  9.7km/h 81% 0.00in /  0mm 0.0 W/m2
00:42 -9.9 °F /  -23.3 °C -14.1 °F /  -25.6 °C 30.78in /  1042.2hPa WSW 6.9mph /  11.1km/h 6.9mph /  11.1km/h 81% 0.00in /  0mm 0.0 W/m2
00:48 -9.8 °F /  -23.2 °C -14.0 °F /  -25.6 °C 30.78in /  1042.2hPa WSW 5.8mph /  9.3km/h 5.8mph /  9.3km/h 81% 0.00in /  0mm 0.0 W/m2
00:54 -9.8 °F /  -23.2 °C -14.3 °F /  -25.7 °C 30.77in /  1041.9hPa West 8.0mph /  12.9km/h 8.0mph /  12.9km/h 80% 0.00in /  0mm 0.0 W/m2
00:59 -9.9 °F /  -23.3 °C -14.4 °F /  -25.8 °C 30.77in /  1041.9hPa WSW 5.8mph /  9.3km/h 5.8mph /  9.3km/h 80% 0.00in /  0mm 0.0 W/m2
01:00 -9.9 °F /  -23.3 °C -14.4 °F /  -25.8 °C 30.77in /  1041.9hPa West 4.6mph /  7.4km/h 4.6mph /  7.4km/h 80% 0.00in /  0mm 0.0 W/m2
01:05 -10.0 °F /  -23.3 °C -14.5 °F /  -25.8 °C 30.77in /  1041.9hPa WSW 3.5mph /  5.6km/h 3.5mph /  5.6km/h 80% 0.00in /  0mm 0.0 W/m2
01:06 -10.0 °F /  -23.3 °C -14.5 °F /  -25.8 °C 30.77in /  1041.9hPa WSW 3.5mph /  5.6km/h 3.5mph /  5.6km/h 80% 0.00in /  0mm 0.0 W/m2
01:11 -10.1 °F /  -23.4 °C -14.6 °F /  -25.9 °C 30.77in /  1041.9hPa West 3.0mph /  4.8km/h 3.0mph /  4.8km/h 80% 0.00in /  0mm 0.0 W/m2
01:16 -10.2 °F /  -23.4 °C -14.4 °F /  -25.8 °C 30.77in /  1041.9hPa West 2.3mph /  3.7km/h 2.3mph /  3.7km/h 81% 0.00in /  0mm 0.0 W/m2
01:18 -10.2 °F /  -23.4 °C -14.4 °F /  -25.8 °C 30.77in /  1041.9hPa WSW 4.0mph /  6.4km/h 4.0mph /  6.4km/h 81% 0.00in /  0mm 0.0 W/m2
01:23 -10.4 °F /  -23.6 °C -14.6 °F /  -25.9 °C 30.77in /  1041.9hPa WSW 6.9mph /  11.1km/h 6.9mph /  11.1km/h 81% 0.00in /  0mm 0.0 W/m2
01:24 -10.4 °F /  -23.6 °C -14.6 °F /  -25.9 °C 30.77in /  1041.9hPa WSW 6.9mph /  11.1km/h 6.9mph /  11.1km/h 81% 0.00in /  0mm 0.0 W/m2
01:29 -10.5 °F /  -23.6 °C -14.7 °F /  -25.9 °C 30.77in /  1041.9hPa WSW 5.0mph /  8km/h 5.0mph /  8km/h 81% 0.00in /  0mm 0.0 W/m2
01:32 -10.6 °F /  -23.7 °C -14.8 °F /  -26 °C 30.77in /  1041.9hPa West 5.8mph /  9.3km/h 5.8mph /  9.3km/h 81% 0.00in /  0mm 0.0 W/m2
01:36 -10.6 °F /  -23.7 °C -14.8 °F /  -26 °C 30.77in /  1041.9hPa West 4.6mph /  7.4km/h 4.6mph /  7.4km/h 81% 0.00in /  0mm 0.0 W/m2
01:40 -10.7 °F /  -23.7 °C -14.9 °F /  -26.1 °C 30.78in /  1042.2hPa WSW 5.8mph /  9.3km/h 5.8mph /  9.3km/h 81% 0.00in /  0mm 0.0 W/m2
01:47 -10.7 °F /  -23.7 °C -14.9 °F /  -26.1 °C 30.78in /  1042.2hPa WSW 3.5mph /  5.6km/h 3.5mph /  5.6km/h 81% 0.00in /  0mm 0.0 W/m2
01:48 -10.7 °F /  -23.7 °C -14.9 °F /  -26.1 °C 30.78in /  1042.2hPa West 5.8mph /  9.3km/h 5.8mph /  9.3km/h 81% 0.00in /  0mm 0.0 W/m2
01:53 -10.7 °F /  -23.7 °C -14.9 °F /  -26.1 °C 30.78in /  1042.2hPa WSW 2.3mph /  3.7km/h 2.3mph /  3.7km/h 81% 0.00in /  0mm 0.0 W/m2
01:54 -10.7 °F /  -23.7 °C -14.9 °F /  -26.1 °C 30.78in /  1042.2hPa WSW 2.3mph /  3.7km/h 2.3mph /  3.7km/h 81% 0.00in /  0mm 0.0 W/m2
01:57 -10.6 °F /  -23.7 °C -14.8 °F /  -26 °C 30.78in /  1042.2hPa North 8.1mph /  13km/h 8.1mph /  13km/h 81% 0.00in /  0mm 0.0 W/m2
01:59 -10.7 °F /  -23.7 °C -14.9 °F /  -26.1 °C 30.78in /  1042.2hPa WSW 4.6mph /  7.4km/h 4.6mph /  7.4km/h 81% 0.00in /  0mm 0.0 W/m2
02:04 -10.8 °F /  -23.8 °C -15.0 °F /  -26.1 °C 30.78in /  1042.2hPa WSW 3.5mph /  5.6km/h 3.5mph /  5.6km/h 81% 0.00in /  0mm 0.0 W/m2
02:10 -11.0 °F /  -23.9 °C -15.2 °F /  -26.2 °C 30.78in /  1042.2hPa WSW 6.9mph /  11.1km/h 6.9mph /  11.1km/h 81% 0.00in /  0mm 0.0 W/m2
02:15 -11.1 °F /  -23.9 °C -15.3 °F /  -26.3 °C 30.78in /  1042.2hPa WSW 3.5mph /  5.6km/h 3.5mph /  5.6km/h 81% 0.00in /  0mm 0.0 W/m2
02:16 -11.1 °F /  -23.9 °C -15.3 °F /  -26.3 °C 30.78in /  1042.2hPa SW 7.0mph /  11.3km/h 7.0mph /  11.3km/h 81% 0.00in /  0mm 0.0 W/m2
02:22 -11.1 °F /  -23.9 °C -15.1 °F /  -26.2 °C 30.78in /  1042.2hPa WSW 3.5mph /  5.6km/h 3.5mph /  5.6km/h 82% 0.00in /  0mm 0.0 W/m2
02:28 -11.1 °F /  -23.9 °C -15.1 °F /  -26.2 °C 30.78in /  1042.2hPa WSW 3.5mph /  5.6km/h 3.5mph /  5.6km/h 82% 0.00in /  0mm 0.0 W/m2
02:30 -11.1 °F /  -23.9 °C -15.3 °F /  -26.3 °C 30.78in /  1042.2hPa WSW 3.5mph /  5.6km/h 3.5mph /  5.6km/h 81% 0.00in /  0mm 0.0 W/m2
02:36 -11.3 °F /  -24.1 °C -15.5 °F /  -26.4 °C 30.78in /  1042.2hPa WSW 3.5mph /  5.6km/h 3.5mph /  5.6km/h 81% 0.00in /  0mm 0.0 W/m2
02:41 -11.6 °F /  -24.2 °C -15.8 °F /  -26.6 °C 30.78in /  1042.2hPa WSW 2.3mph /  3.7km/h 2.3mph /  3.7km/h 81% 0.00in /  0mm 0.0 W/m2
02:46 -11.8 °F /  -24.3 °C -16.0 °F /  -26.7 °C 30.79in /  1042.5hPa SW 6.9mph /  11.1km/h 6.9mph /  11.1km/h 81% 0.00in /  0mm 0.0 W/m2
02:48 -11.8 °F /  -24.3 °C -16.0 °F /  -26.7 °C 30.79in /  1042.5hPa WSW 5.8mph /  9.3km/h 5.8mph /  9.3km/h 81% 0.00in /  0mm 0.0 W/m2
02:53 -11.8 °F /  -24.3 °C -16.0 °F /  -26.7 °C 30.78in /  1042.2hPa WSW 3.5mph /  5.6km/h 3.5mph /  5.6km/h 81% 0.00in /  0mm 0.0 W/m2
02:56 -11.8 °F /  -24.3 °C -15.8 °F /  -26.6 °C 30.78in /  1042.2hPa WSW 6.9mph /  11.1km/h 6.9mph /  11.1km/h 82% 0.00in /  0mm 0.0 W/m2
03:01 -11.8 °F /  -24.3 °C -15.8 °F /  -26.6 °C 30.78in /  1042.2hPa West 6.9mph /  11.1km/h 6.9mph /  11.1km/h 82% 0.00in /  0mm 0.0 W/m2
03:02 -11.8 °F /  -24.3 °C -15.8 °F /  -26.6 °C 30.78in /  1042.2hPa West 3.5mph /  5.6km/h 3.5mph /  5.6km/h 82% 0.00in /  0mm 0.0 W/m2
03:04 -11.8 °F /  -24.3 °C -15.8 °F /  -26.6 °C 30.77in /  1041.9hPa WSW 4.0mph /  6.4km/h 4.0mph /  6.4km/h 82% 0.00in /  0mm 0.0 W/m2
03:09 -11.8 °F /  -24.3 °C -15.8 °F /  -26.6 °C 30.77in /  1041.9hPa SW 5.8mph /  9.3km/h 5.8mph /  9.3km/h 82% 0.00in /  0mm 0.0 W/m2
03:10 -11.9 °F /  -24.4 °C -15.8 °F /  -26.6 °C 30.77in /  1041.9hPa WSW 4.0mph /  6.4km/h 4.0mph /  6.4km/h 82% 0.00in /  0mm 0.0 W/m2
03:14 -11.9 °F /  -24.4 °C -15.8 °F /  -26.6 °C 30.77in /  1041.9hPa WSW 5.0mph /  8km/h 5.0mph /  8km/h 82% 0.00in /  0mm 0.0 W/m2
03:15 -11.9 °F /  -24.4 °C -15.8 °F /  -26.6 °C 30.77in /  1041.9hPa WSW 9.2mph /  14.8km/h 9.2mph /  14.8km/h 82% 0.00in /  0mm 0.0 W/m2
03:20 -11.8 °F /  -24.3 °C -15.8 °F /  -26.6 °C 30.77in /  1041.9hPa WSW 3.5mph /  5.6km/h 3.5mph /  5.6km/h 82% 0.00in /  0mm 0.0 W/m2
03:21 -11.8 °F /  -24.3 °C -15.8 °F /  -26.6 °C 30.77in /  1041.9hPa WSW 3.5mph /  5.6km/h 3.5mph /  5.6km/h 82% 0.00in /  0mm 0.0 W/m2
03:26 -11.7 °F /  -24.3 °C -15.7 °F /  -26.5 °C 30.77in /  1041.9hPa WSW 4.6mph /  7.4km/h 4.6mph /  7.4km/h 82% 0.00in /  0mm 0.0 W/m2
03:27 -11.7 °F /  -24.3 °C -15.7 °F /  -26.5 °C 30.76in /  1041.5hPa WSW 5.0mph /  8km/h 5.0mph /  8km/h 82% 0.00in /  0mm 0.0 W/m2
03:32 -11.6 °F /  -24.2 °C -15.6 °F /  -26.4 °C 30.76in /  1041.5hPa West 4.6mph /  7.4km/h 4.6mph /  7.4km/h 82% 0.00in /  0mm 0.0 W/m2
03:34 -11.6 °F /  -24.2 °C -15.6 °F /  -26.4 °C 30.76in /  1041.5hPa West 6.9mph /  11.1km/h 6.9mph /  11.1km/h 82% 0.00in /  0mm 0.0 W/m2
03:37 -11.6 °F /  -24.2 °C -15.6 °F /  -26.4 °C 30.76in /  1041.5hPa WSW 6.9mph /  11.1km/h 6.9mph /  11.1km/h 82% 0.00in /  0mm 0.0 W/m2
03:40 -11.6 °F /  -24.2 °C -15.6 °F /  -26.4 °C 30.77in /  1041.9hPa WNW 6.9mph /  11.1km/h 6.9mph /  11.1km/h 82% 0.00in /  0mm 0.0 W/m2
03:45 -11.5 °F /  -24.2 °C -15.5 °F /  -26.4 °C 30.77in /  1041.9hPa WSW 4.6mph /  7.4km/h 4.6mph /  7.4km/h 82% 0.00in /  0mm 0.0 W/m2
03:47 -11.5 °F /  -24.2 °C -15.5 °F /  -26.4 °C 30.77in /  1041.9hPa WSW 4.0mph /  6.4km/h 4.0mph /  6.4km/h 82% 0.00in /  0mm 0.0 W/m2
03:52 -11.7 °F /  -24.3 °C -15.7 °F /  -26.5 °C 30.76in /  1041.5hPa WSW 4.6mph /  7.4km/h 4.6mph /  7.4km/h 82% 0.00in /  0mm 0.0 W/m2
03:57 -12.0 °F /  -24.4 °C -15.9 °F /  -26.6 °C 30.76in /  1041.5hPa SW 6.0mph /  9.7km/h 6.0mph /  9.7km/h 82% 0.00in /  0mm 0.0 W/m2
04:02 -12.1 °F /  -24.5 °C -16.3 °F /  -26.8 °C 30.76in /  1041.5hPa WSW 3.5mph /  5.6km/h 3.5mph /  5.6km/h 81% 0.00in /  0mm 0.0 W/m2
04:03 -12.2 °F /  -24.6 °C -16.4 °F /  -26.9 °C 30.76in /  1041.5hPa WSW 3.5mph /  5.6km/h 3.5mph /  5.6km/h 81% 0.00in /  0mm 0.0 W/m2
04:08 -12.3 °F /  -24.6 °C -16.5 °F /  -26.9 °C 30.76in /  1041.5hPa West 4.6mph /  7.4km/h 4.6mph /  7.4km/h 81% 0.00in /  0mm 0.0 W/m2
04:13 -12.4 °F /  -24.7 °C -16.6 °F /  -27 °C 30.76in /  1041.5hPa WSW 4.0mph /  6.4km/h 4.0mph /  6.4km/h 81% 0.00in /  0mm 0.0 W/m2
04:15 -12.3 °F /  -24.6 °C -16.5 °F /  -26.9 °C 30.76in /  1041.5hPa West 5.8mph /  9.3km/h 5.8mph /  9.3km/h 81% 0.00in /  0mm 0.0 W/m2
04:19 -12.3 °F /  -24.6 °C -16.2 °F /  -26.8 °C 30.75in /  1041.2hPa West 5.8mph /  9.3km/h 5.8mph /  9.3km/h 82% 0.00in /  0mm 0.0 W/m2
04:22 -12.2 °F /  -24.6 °C -16.1 °F /  -26.7 °C 30.75in /  1041.2hPa WSW 3.5mph /  5.6km/h 4.0mph /  6.4km/h 82% 0.00in /  0mm 0.0 W/m2
04:24 -12.2 °F /  -24.6 °C -16.1 °F /  -26.7 °C 30.75in /  1041.2hPa WSW 5.8mph /  9.3km/h 5.8mph /  9.3km/h 82% 0.00in /  0mm 0.0 W/m2
04:28 -12.2 °F /  -24.6 °C -16.1 °F /  -26.7 °C 30.75in /  1041.2hPa WSW 3.5mph /  5.6km/h 3.5mph /  5.6km/h 82% 0.00in /  0mm 0.0 W/m2
04:29 -12.2 °F /  -24.6 °C -16.1 °F /  -26.7 °C 30.75in /  1041.2hPa WSW 3.0mph /  4.8km/h 3.0mph /  4.8km/h 82% 0.00in /  0mm 0.0 W/m2
04:34 -12.2 °F /  -24.6 °C -16.1 °F /  -26.7 °C 30.75in /  1041.2hPa WSW 3.5mph /  5.6km/h 3.5mph /  5.6km/h 82% 0.00in /  0mm 0.0 W/m2
04:35 -12.2 °F /  -24.6 °C -16.1 °F /  -26.7 °C 30.75in /  1041.2hPa WSW 6.0mph /  9.7km/h 6.0mph /  9.7km/h 82% 0.00in /  0mm 0.0 W/m2
04:40 -12.2 °F /  -24.6 °C -16.1 °F /  -26.7 °C 30.75in /  1041.2hPa WSW 3.5mph /  5.6km/h 3.5mph /  5.6km/h 82% 0.00in /  0mm 0.0 W/m2
04:45 -12.1 °F /  -24.5 °C -16.0 °F /  -26.7 °C 30.75in /  1041.2hPa WSW 3.5mph /  5.6km/h 3.5mph /  5.6km/h 82% 0.00in /  0mm 0.0 W/m2
04:46 -12.1 °F /  -24.5 °C -16.0 °F /  -26.7 °C 30.75in /  1041.2hPa WSW 4.6mph /  7.4km/h 4.6mph /  7.4km/h 82% 0.00in /  0mm 0.0 W/m2
04:47 -12.1 °F /  -24.5 °C -16.0 °F /  -26.7 °C 30.75in /  1041.2hPa WSW 5.0mph /  8km/h 5.0mph /  8km/h 82% 0.00in /  0mm 0.0 W/m2
04:52 -12.1 °F /  -24.5 °C -16.0 °F /  -26.7 °C 30.75in /  1041.2hPa WSW 3.5mph /  5.6km/h 3.5mph /  5.6km/h 82% 0.00in /  0mm 0.0 W/m2
04:53 -12.1 °F /  -24.5 °C -16.0 °F /  -26.7 °C 30.75in /  1041.2hPa WSW 5.8mph /  9.3km/h 5.8mph /  9.3km/h 82% 0.00in /  0mm 0.0 W/m2
04:54 -12.1 °F /  -24.5 °C -16.0 °F /  -26.7 °C 30.75in /  1041.2hPa WSW 5.0mph /  8km/h 5.0mph /  8km/h 82% 0.00in /  0mm 0.0 W/m2
04:58 -12.2 °F /  -24.6 °C -16.1 °F /  -26.7 °C 30.75in /  1041.2hPa WSW 6.0mph /  9.7km/h 6.0mph /  9.7km/h 82% 0.00in /  0mm 0.0 W/m2
05:03 -12.3 °F /  -24.6 °C -16.5 °F /  -26.9 °C 30.75in /  1041.2hPa WSW 5.8mph /  9.3km/h 5.8mph /  9.3km/h 81% 0.00in /  0mm 0.0 W/m2
05:04 -12.3 °F /  -24.6 °C -16.5 °F /  -26.9 °C 30.75in /  1041.2hPa WSW 4.6mph /  7.4km/h 4.6mph /  7.4km/h 81% 0.00in /  0mm 0.0 W/m2
05:07 -12.4 °F /  -24.7 °C -16.6 °F /  -27 °C 30.75in /  1041.2hPa SW 5.8mph /  9.3km/h 5.8mph /  9.3km/h 81% 0.00in /  0mm 0.0 W/m2
05:09 -12.3 °F /  -24.6 °C -16.5 °F /  -26.9 °C 30.75in /  1041.2hPa WSW 8.1mph /  13km/h 8.1mph /  13km/h 81% 0.00in /  0mm 0.0 W/m2
05:15 -12.3 °F /  -24.6 °C -16.2 °F /  -26.8 °C 30.75in /  1041.2hPa WSW 5.8mph /  9.3km/h 5.8mph /  9.3km/h 82% 0.00in /  0mm 0.0 W/m2
05:19 -12.2 °F /  -24.6 °C -16.1 °F /  -26.7 °C 30.75in /  1041.2hPa WSW 6.9mph /  11.1km/h 6.9mph /  11.1km/h 82% 0.00in /  0mm 0.0 W/m2
05:20 -12.2 °F /  -24.6 °C -16.1 °F /  -26.7 °C 30.75in /  1041.2hPa SW 6.9mph /  11.1km/h 6.9mph /  11.1km/h 82% 0.00in /  0mm 0.0 W/m2
05:28 -12.2 °F /  -24.6 °C -16.1 °F /  -26.7 °C 30.75in /  1041.2hPa WSW 6.0mph /  9.7km/h 6.0mph /  9.7km/h 82% 0.00in /  0mm 0.0 W/m2
05:31 -12.3 °F /  -24.6 °C -16.5 °F /  -26.9 °C 30.74in /  1040.9hPa WSW 5.8mph /  9.3km/h 5.8mph /  9.3km/h 81% 0.00in /  0mm 0.0 W/m2
05:33 -12.3 °F /  -24.6 °C -16.5 °F /  -26.9 °C 30.74in /  1040.9hPa WSW 4.6mph /  7.4km/h 4.8mph /  7.7km/h 81% 0.00in /  0mm 0.0 W/m2
05:38 -12.5 °F /  -24.7 °C -16.7 °F /  -27.1 °C 30.74in /  1040.9hPa SW 5.8mph /  9.3km/h 5.8mph /  9.3km/h 81% 0.00in /  0mm 0.0 W/m2
05:39 -12.6 °F /  -24.8 °C -16.8 °F /  -27.1 °C 30.74in /  1040.9hPa SW 5.8mph /  9.3km/h 5.8mph /  9.3km/h 81% 0.00in /  0mm 0.0 W/m2
05:43 -13.0 °F /  -25 °C -17.4 °F /  -27.4 °C 30.74in /  1040.9hPa WSW 5.8mph /  9.3km/h 5.8mph /  9.3km/h 80% 0.00in /  0mm 0.0 W/m2
05:46 -13.3 °F /  -25.2 °C -17.7 °F /  -27.6 °C 30.74in /  1040.9hPa SW 5.8mph /  9.3km/h 5.8mph /  9.3km/h 80% 0.00in /  0mm 0.0 W/m2
05:49 -13.4 °F /  -25.2 °C -17.8 °F /  -27.7 °C 30.73in /  1040.5hPa SW 6.9mph /  11.1km/h 6.9mph /  11.1km/h 80% 0.00in /  0mm 0.0 W/m2
05:55 -13.7 °F /  -25.4 °C -18.1 °F /  -27.8 °C 30.73in /  1040.5hPa SW 8.1mph /  13km/h 8.1mph /  13km/h 80% 0.00in /  0mm 0.0 W/m2
06:00 -13.8 °F /  -25.4 °C -18.2 °F /  -27.9 °C 30.74in /  1040.9hPa SW 6.9mph /  11.1km/h 6.9mph /  11.1km/h 80% 0.00in /  0mm 0.0 W/m2
06:01 -13.8 °F /  -25.4 °C -18.2 °F /  -27.9 °C 30.74in /  1040.9hPa WSW 8.1mph /  13km/h 8.1mph /  13km/h 80% 0.00in /  0mm 0.0 W/m2
06:06 -13.8 °F /  -25.4 °C -18.0 °F /  -27.8 °C 30.74in /  1040.9hPa WSW 6.9mph /  11.1km/h 6.9mph /  11.1km/h 81% 0.00in /  0mm 0.0 W/m2
06:08 -13.8 °F /  -25.4 °C -18.0 °F /  -27.8 °C 30.74in /  1040.9hPa WSW 3.5mph /  5.6km/h 3.5mph /  5.6km/h 81% 0.00in /  0mm 0.0 W/m2
06:14 -13.7 °F /  -25.4 °C -17.9 °F /  -27.7 °C 30.75in /  1041.2hPa WSW 4.6mph /  7.4km/h 4.6mph /  7.4km/h 81% 0.00in /  0mm 0.0 W/m2
06:19 -13.7 °F /  -25.4 °C -17.9 °F /  -27.7 °C 30.75in /  1041.2hPa WSW 3.5mph /  5.6km/h 3.5mph /  5.6km/h 81% 0.00in /  0mm 0.0 W/m2
06:21 -13.7 °F /  -25.4 °C -17.9 °F /  -27.7 °C 30.75in /  1041.2hPa WSW 3.5mph /  5.6km/h 3.5mph /  5.6km/h 81% 0.00in /  0mm 0.0 W/m2
06:26 -13.8 °F /  -25.4 °C -18.0 °F /  -27.8 °C 30.75in /  1041.2hPa WSW 1.2mph /  1.9km/h 1.2mph /  1.9km/h 81% 0.00in /  0mm 0.0 W/m2
06:27 -13.8 °F /  -25.4 °C -18.0 °F /  -27.8 °C 30.75in /  1041.2hPa WSW 1.2mph /  1.9km/h 1.2mph /  1.9km/h 81% 0.00in /  0mm 0.0 W/m2
06:28 -13.8 °F /  -25.4 °C -18.0 °F /  -27.8 °C 30.75in /  1041.2hPa WSW 1.2mph /  1.9km/h   81% 0.00in /  0mm 0.0 W/m2
06:32 -13.8 °F /  -25.4 °C -18.0 °F /  -27.8 °C 30.75in /  1041.2hPa WSW 3.5mph /  5.6km/h 3.5mph /  5.6km/h 81% 0.00in /  0mm 0.0 W/m2
06:36 -13.8 °F /  -25.4 °C -18.0 °F /  -27.8 °C 30.75in /  1041.2hPa WSW 3.5mph /  5.6km/h 3.5mph /  5.6km/h 81% 0.00in /  0mm 0.0 W/m2
06:38 -13.8 °F /  -25.4 °C -18.0 °F /  -27.8 °C 30.75in /  1041.2hPa WSW 5.8mph /  9.3km/h 5.8mph /  9.3km/h 81% 0.00in /  0mm 0.0 W/m2
06:43 -13.8 °F /  -25.4 °C -18.0 °F /  -27.8 °C 30.74in /  1040.9hPa North 5.0mph /  8km/h 5.0mph /  8km/h 81% 0.00in /  0mm 0.0 W/m2
06:46 -13.8 °F /  -25.4 °C -18.0 °F /  -27.8 °C 30.75in /  1041.2hPa WSW 3.5mph /  5.6km/h 3.5mph /  5.6km/h 81% 0.00in /  0mm 0.0 W/m2
06:49 -13.7 °F /  -25.4 °C -17.9 °F /  -27.7 °C 30.74in /  1040.9hPa North 8.1mph /  13km/h 8.1mph /  13km/h 81% 0.00in /  0mm 0.0 W/m2
06:51 -13.6 °F /  -25.3 °C -17.8 °F /  -27.7 °C 30.75in /  1041.2hPa WSW 3.5mph /  5.6km/h 3.5mph /  5.6km/h 81% 0.00in /  0mm 0.0 W/m2
06:56 -13.6 °F /  -25.3 °C -17.8 °F /  -27.7 °C 30.75in /  1041.2hPa West 4.6mph /  7.4km/h 4.6mph /  7.4km/h 81% 0.00in /  0mm 0.0 W/m2
06:58 -13.5 °F /  -25.3 °C -17.7 °F /  -27.6 °C 30.75in /  1041.2hPa West 5.8mph /  9.3km/h 5.8mph /  9.3km/h 81% 0.00in /  0mm 0.0 W/m2
07:03 -13.5 °F /  -25.3 °C -17.7 °F /  -27.6 °C 30.75in /  1041.2hPa West 3.5mph /  5.6km/h 3.5mph /  5.6km/h 81% 0.00in /  0mm 0.0 W/m2
07:08 -13.5 °F /  -25.3 °C -17.7 °F /  -27.6 °C 30.75in /  1041.2hPa West 2.3mph /  3.7km/h 2.3mph /  3.7km/h 81% 0.00in /  0mm 0.0 W/m2
07:13 -13.6 °F /  -25.3 °C -17.8 °F /  -27.7 °C 30.74in /  1040.9hPa West 3.5mph /  5.6km/h 3.5mph /  5.6km/h 81% 0.00in /  0mm 0.0 W/m2
07:17 -13.6 °F /  -25.3 °C -17.8 °F /  -27.7 °C 30.75in /  1041.2hPa WSW 3.5mph /  5.6km/h 3.5mph /  5.6km/h 81% 0.00in /  0mm 5.0 W/m2
07:19 -13.6 °F /  -25.3 °C -17.8 °F /  -27.7 °C 30.75in /  1041.2hPa WSW 3.5mph /  5.6km/h 3.5mph /  5.6km/h 81% 0.00in /  0mm 5.0 W/m2
07:24 -13.5 °F /  -25.3 °C -17.7 °F /  -27.6 °C 30.74in /  1040.9hPa WSW 3.5mph /  5.6km/h 3.5mph /  5.6km/h 81% 0.00in /  0mm 9.0 W/m2
07:25 -13.5 °F /  -25.3 °C -17.7 °F /  -27.6 °C 30.74in /  1040.9hPa WSW 3.5mph /  5.6km/h 3.5mph /  5.6km/h 81% 0.00in /  0mm 9.0 W/m2
07:26 -13.5 °F /  -25.3 °C -17.7 °F /  -27.6 °C 30.74in /  1040.9hPa WSW 2.3mph /  3.7km/h 2.3mph /  3.7km/h 81% 0.00in /  0mm 9.0 W/m2
07:31 -13.4 °F /  -25.2 °C -17.6 °F /  -27.6 °C 30.74in /  1040.9hPa SW 4.6mph /  7.4km/h 4.6mph /  7.4km/h 81% 0.00in /  0mm 12.0 W/m2
07:36 -13.2 °F /  -25.1 °C -17.4 °F /  -27.4 °C 30.74in /  1040.9hPa WSW 5.8mph /  9.3km/h 5.8mph /  9.3km/h 81% 0.00in /  0mm 16.0 W/m2
07:37 -13.2 °F /  -25.1 °C -17.4 °F /  -27.4 °C 30.74in /  1040.9hPa WSW 5.0mph /  8km/h 5.0mph /  8km/h 81% 0.00in /  0mm 16.0 W/m2
07:38 -13.1 °F /  -25.1 °C -17.3 °F /  -27.4 °C 30.74in /  1040.9hPa SW 5.8mph /  9.3km/h 5.8mph /  9.3km/h 81% 0.00in /  0mm 18.0 W/m2
07:42 -13.0 °F /  -25 °C -17.2 °F /  -27.3 °C 30.74in /  1040.9hPa SW 2.3mph /  3.7km/h 2.3mph /  3.7km/h 81% 0.00in /  0mm 26.0 W/m2
07:46 -12.8 °F /  -24.9 °C -17.0 °F /  -27.2 °C 30.74in /  1040.9hPa WSW 5.0mph /  8km/h 5.0mph /  8km/h 81% 0.00in /  0mm 35.0 W/m2
07:51 -12.6 °F /  -24.8 °C -16.8 °F /  -27.1 °C 30.74in /  1040.9hPa North 6.0mph /  9.7km/h 6.0mph /  9.7km/h 81% 0.00in /  0mm 47.0 W/m2
07:52 -12.6 °F /  -24.8 °C -16.8 °F /  -27.1 °C 30.74in /  1040.9hPa SW 8.1mph /  13km/h 8.1mph /  13km/h 81% 0.00in /  0mm 49.0 W/m2
07:55 -12.4 °F /  -24.7 °C -16.6 °F /  -27 °C 30.74in /  1040.9hPa West 3.5mph /  5.6km/h 3.5mph /  5.6km/h 81% 0.00in /  0mm 56.0 W/m2
07:59 -12.3 °F /  -24.6 °C -16.5 °F /  -26.9 °C 30.74in /  1040.9hPa West 3.5mph /  5.6km/h 3.5mph /  5.6km/h 81% 0.00in /  0mm 65.0 W/m2
08:03 -12.2 °F /  -24.6 °C -16.4 °F /  -26.9 °C 30.74in /  1040.9hPa SW 6.9mph /  11.1km/h 6.9mph /  11.1km/h 81% 0.00in /  0mm 74.0 W/m2
08:05 -12.1 °F /  -24.5 °C -16.3 °F /  -26.8 °C 30.74in /  1040.9hPa WSW 5.8mph /  9.3km/h 5.8mph /  9.3km/h 81% 0.00in /  0mm 77.0 W/m2
08:10 -11.9 °F /  -24.4 °C -16.1 °F /  -26.7 °C 30.74in /  1040.9hPa WSW 3.5mph /  5.6km/h 3.5mph /  5.6km/h 81% 0.00in /  0mm 93.0 W/m2
08:12 -11.8 °F /  -24.3 °C -16.0 °F /  -26.7 °C 30.74in /  1040.9hPa WSW 6.0mph /  9.7km/h 6.0mph /  9.7km/h 81% 0.00in /  0mm 98.0 W/m2
08:17 -11.5 °F /  -24.2 °C -15.7 °F /  -26.5 °C 30.74in /  1040.9hPa WSW 3.5mph /  5.6km/h 3.5mph /  5.6km/h 81% 0.00in /  0mm 113.0 W/m2
08:21 -11.3 °F /  -24.1 °C -15.5 °F /  -26.4 °C 30.74in /  1040.9hPa West 6.9mph /  11.1km/h 6.9mph /  11.1km/h 81% 0.00in /  0mm 123.0 W/m2
08:23 -11.2 °F /  -24 °C -15.4 °F /  -26.3 °C 30.74in /  1040.9hPa West 5.8mph /  9.3km/h 5.8mph /  9.3km/h 81% 0.00in /  0mm 132.0 W/m2
08:27 -10.9 °F /  -23.8 °C -15.1 °F /  -26.2 °C 30.74in /  1040.9hPa North 3.5mph /  5.6km/h 3.5mph /  5.6km/h 81% 0.00in /  0mm 141.0 W/m2
08:30 -10.7 °F /  -23.7 °C -14.9 °F /  -26.1 °C 30.75in /  1041.2hPa WSW 3.0mph /  4.8km/h 3.0mph /  4.8km/h 81% 0.00in /  0mm 149.0 W/m2
08:34 -10.5 °F /  -23.6 °C -14.7 °F /  -25.9 °C 30.74in /  1040.9hPa Calm   0.4mph /  0.6km/h 81% 0.00in /  0mm 163.0 W/m2
08:36 -10.3 °F /  -23.5 °C -14.5 °F /  -25.8 °C 30.74in /  1040.9hPa SW 3.5mph /  5.6km/h 3.5mph /  5.6km/h 81% 0.00in /  0mm 169.0 W/m2
08:41 -9.9 °F /  -23.3 °C -14.1 °F /  -25.6 °C 30.74in /  1040.9hPa SW 1.2mph /  1.9km/h 1.2mph /  1.9km/h 81% 0.00in /  0mm 185.0 W/m2
08:43 -9.9 °F /  -23.3 °C -14.4 °F /  -25.8 °C 30.74in /  1040.9hPa SW 2.3mph /  3.7km/h 2.3mph /  3.7km/h 80% 0.00in /  0mm 190.0 W/m2
08:48 -9.7 °F /  -23.2 °C -14.2 °F /  -25.7 °C 30.74in /  1040.9hPa SW 3.5mph /  5.6km/h 3.5mph /  5.6km/h 80% 0.00in /  0mm 204.0 W/m2
08:50 -9.6 °F /  -23.1 °C -14.1 °F /  -25.6 °C 30.74in /  1040.9hPa SSW 3.5mph /  5.6km/h 3.5mph /  5.6km/h 80% 0.00in /  0mm 213.0 W/m2
08:55 -9.6 °F /  -23.1 °C -14.3 °F /  -25.7 °C 30.74in /  1040.9hPa SSW 6.9mph /  11.1km/h 6.9mph /  11.1km/h 79% 0.00in /  0mm 229.0 W/m2
08:58 -9.5 °F /  -23.1 °C -14.2 °F /  -25.7 °C 30.73in /  1040.5hPa WSW 3.5mph /  5.6km/h 3.5mph /  5.6km/h 79% 0.00in /  0mm 236.0 W/m2
08:59 -9.5 °F /  -23.1 °C -14.2 °F /  -25.7 °C 30.73in /  1040.5hPa WSW 3.5mph /  5.6km/h 3.5mph /  5.6km/h 79% 0.00in /  0mm 239.0 W/m2
09:03 -9.5 °F /  -23.1 °C -14.5 °F /  -25.8 °C 30.74in /  1040.9hPa WSW 7.0mph /  11.3km/h 7.0mph /  11.3km/h 78% 0.00in /  0mm 251.0 W/m2
09:04 -9.5 °F /  -23.1 °C -14.5 °F /  -25.8 °C 30.74in /  1040.9hPa North 9.2mph /  14.8km/h 9.2mph /  14.8km/h 78% 0.00in /  0mm 251.0 W/m2
09:09 -9.9 °F /  -23.3 °C -14.9 °F /  -26.1 °C 30.73in /  1040.5hPa SW 10.4mph /  16.7km/h 10.4mph /  16.7km/h 78% 0.00in /  0mm 267.0 W/m2
09:11 -9.9 °F /  -23.3 °C -14.9 °F /  -26.1 °C 30.73in /  1040.5hPa SW 9.2mph /  14.8km/h 9.2mph /  14.8km/h 78% 0.00in /  0mm 271.0 W/m2
09:12 -9.8 °F /  -23.2 °C -14.8 °F /  -26 °C 30.74in /  1040.9hPa SW 9.2mph /  14.8km/h 9.2mph /  14.8km/h 78% 0.00in /  0mm 272.0 W/m2
09:17 -9.5 °F /  -23.1 °C -14.5 °F /  -25.8 °C 30.73in /  1040.5hPa SSW 8.1mph /  13km/h 8.1mph /  13km/h 78% 0.00in /  0mm 283.0 W/m2
09:18 -9.5 °F /  -23.1 °C -14.2 °F /  -25.7 °C 30.73in /  1040.5hPa SW 8.1mph /  13km/h 8.1mph /  13km/h 79% 0.00in /  0mm 287.0 W/m2
09:23 -9.2 °F /  -22.9 °C -14.2 °F /  -25.7 °C 30.73in /  1040.5hPa SW 8.1mph /  13km/h 8.1mph /  13km/h 78% 0.00in /  0mm 295.0 W/m2
09:28 -8.9 °F /  -22.7 °C -13.9 °F /  -25.5 °C 30.73in /  1040.5hPa North 11.5mph /  18.5km/h 11.5mph /  18.5km/h 78% 0.00in /  0mm 308.0 W/m2
09:30 -8.9 °F /  -22.7 °C -13.9 °F /  -25.5 °C 30.73in /  1040.5hPa SW 8.1mph /  13km/h 8.1mph /  13km/h 78% 0.00in /  0mm 309.0 W/m2
09:31 -8.8 °F /  -22.7 °C -13.8 °F /  -25.4 °C 30.73in /  1040.5hPa SW 8.1mph /  13km/h 8.1mph /  13km/h 78% 0.00in /  0mm 313.0 W/m2
09:36 -8.6 °F /  -22.6 °C -13.6 °F /  -25.3 °C 30.73in /  1040.5hPa North 12.7mph /  20.4km/h 12.7mph /  20.4km/h 78% 0.00in /  0mm 322.0 W/m2
09:40 -8.4 °F /  -22.4 °C -13.7 °F /  -25.4 °C 30.73in /  1040.5hPa SW 10.0mph /  16.1km/h 10.0mph /  16.1km/h 77% 0.00in /  0mm 332.0 W/m2
09:44 -8.2 °F /  -22.3 °C -13.5 °F /  -25.3 °C 30.73in /  1040.5hPa SW 11.5mph /  18.5km/h 11.5mph /  18.5km/h 77% 0.00in /  0mm 336.0 W/m2
09:49 -8.0 °F /  -22.2 °C -13.3 °F /  -25.2 °C 30.73in /  1040.5hPa WSW 10.4mph /  16.7km/h 10.4mph /  16.7km/h 77% 0.00in /  0mm 346.0 W/m2
09:54 -7.8 °F /  -22.1 °C -13.1 °F /  -25.1 °C 30.73in /  1040.5hPa SW 12.7mph /  20.4km/h 12.7mph /  20.4km/h 77% 0.00in /  0mm 357.0 W/m2
09:58 -7.8 °F /  -22.1 °C -13.4 °F /  -25.2 °C 30.73in /  1040.5hPa WSW 11.5mph /  18.5km/h 11.5mph /  18.5km/h 76% 0.00in /  0mm 362.0 W/m2
10:00 -7.7 °F /  -22.1 °C -13.0 °F /  -25 °C 30.73in /  1040.5hPa WSW 11.5mph /  18.5km/h 11.5mph /  18.5km/h 77% 0.00in /  0mm 366.0 W/m2
10:05 -7.3 °F /  -21.8 °C -12.9 °F /  -24.9 °C 30.73in /  1040.5hPa WSW 11.5mph /  18.5km/h 11.5mph /  18.5km/h 76% 0.00in /  0mm 374.0 W/m2
10:06 -7.2 °F /  -21.8 °C -12.8 °F /  -24.9 °C 30.73in /  1040.5hPa West 11.5mph /  18.5km/h 11.5mph /  18.5km/h 76% 0.00in /  0mm 376.0 W/m2
10:11 -7.0 °F /  -21.7 °C -12.6 °F /  -24.8 °C 30.73in /  1040.5hPa West 9.2mph /  14.8km/h 9.2mph /  14.8km/h 76% 0.00in /  0mm 383.0 W/m2
10:16 -6.6 °F /  -21.4 °C -12.2 °F /  -24.6 °C 30.73in /  1040.5hPa North 11.5mph /  18.5km/h 11.5mph /  18.5km/h 76% 0.00in /  0mm 390.0 W/m2
10:18 -6.4 °F /  -21.3 °C -12.0 °F /  -24.4 °C 30.72in /  1040.2hPa SW 6.9mph /  11.1km/h 6.9mph /  11.1km/h 76% 0.00in /  0mm 394.0 W/m2
10:23 -6.2 °F /  -21.2 °C -12.1 °F /  -24.5 °C 30.72in /  1040.2hPa WSW 8.1mph /  13km/h 8.1mph /  13km/h 75% 0.00in /  0mm 401.0 W/m2
10:24 -6.1 °F /  -21.2 °C -12.0 °F /  -24.4 °C 30.72in /  1040.2hPa WSW 9.2mph /  14.8km/h 9.2mph /  14.8km/h 75% 0.00in /  0mm 403.0 W/m2
10:29 -5.9 °F /  -21.1 °C -11.8 °F /  -24.3 °C 30.72in /  1040.2hPa WSW 8.1mph /  13km/h 8.1mph /  13km/h 75% 0.00in /  0mm 410.0 W/m2
10:30 -5.9 °F /  -21.1 °C -11.8 °F /  -24.3 °C 30.72in /  1040.2hPa WSW 8.1mph /  13km/h 8.1mph /  13km/h 75% 0.00in /  0mm 413.0 W/m2
10:34 -5.5 °F /  -20.8 °C -11.4 °F /  -24.1 °C 30.72in /  1040.2hPa WSW 10.4mph /  16.7km/h 10.4mph /  16.7km/h 75% 0.00in /  0mm 418.0 W/m2
10:35 -5.5 °F /  -20.8 °C -11.7 °F /  -24.3 °C 30.71in /  1039.8hPa WSW 9.2mph /  14.8km/h 9.2mph /  14.8km/h 74% 0.00in /  0mm 418.0 W/m2
10:40 -5.3 °F /  -20.7 °C -11.5 °F /  -24.2 °C 30.71in /  1039.8hPa WSW 9.2mph /  14.8km/h 9.2mph /  14.8km/h 74% 0.00in /  0mm 424.0 W/m2
10:46 -4.8 °F /  -20.4 °C -11.0 °F /  -23.9 °C 30.71in /  1039.8hPa SW 8.0mph /  12.9km/h 8.0mph /  12.9km/h 74% 0.00in /  0mm 431.0 W/m2
10:51 -4.4 °F /  -20.2 °C -10.6 °F /  -23.7 °C 30.70in /  1039.5hPa North 9.2mph /  14.8km/h 9.2mph /  14.8km/h 74% 0.00in /  0mm 438.0 W/m2
10:52 -4.3 °F /  -20.2 °C -10.8 °F /  -23.8 °C 30.70in /  1039.5hPa WSW 8.1mph /  13km/h 8.1mph /  13km/h 73% 0.00in /  0mm 438.0 W/m2
10:53 -4.3 °F /  -20.2 °C -10.8 °F /  -23.8 °C 30.70in /  1039.5hPa SW 9.2mph /  14.8km/h 9.2mph /  14.8km/h 73% 0.00in /  0mm 438.0 W/m2
10:58 -3.9 °F /  -19.9 °C -10.4 °F /  -23.6 °C 30.70in /  1039.5hPa WSW 10.4mph /  16.7km/h 10.4mph /  16.7km/h 73% 0.00in /  0mm 445.0 W/m2
10:59 -3.9 °F /  -19.9 °C -10.4 °F /  -23.6 °C 30.70in /  1039.5hPa North 10.4mph /  16.7km/h 10.4mph /  16.7km/h 73% 0.00in /  0mm 443.0 W/m2
11:01 -3.9 °F /  -19.9 °C -10.4 °F /  -23.6 °C 30.69in /  1039.2hPa SW 11.0mph /  17.7km/h 11.0mph /  17.7km/h 73% 0.00in /  0mm 446.0 W/m2
11:04 -3.8 °F /  -19.9 °C -10.6 °F /  -23.7 °C 30.69in /  1039.2hPa SSW 9.2mph /  14.8km/h 9.2mph /  14.8km/h 72% 0.00in /  0mm 448.0 W/m2
11:07 -3.6 °F /  -19.8 °C -10.4 °F /  -23.6 °C 30.69in /  1039.2hPa SW 4.6mph /  7.4km/h 4.6mph /  7.4km/h 72% 0.00in /  0mm 450.0 W/m2
11:10 -3.4 °F /  -19.7 °C -10.2 °F /  -23.4 °C 30.69in /  1039.2hPa SW 6.9mph /  11.1km/h 6.9mph /  11.1km/h 72% 0.00in /  0mm 454.0 W/m2
11:15 -3.1 °F /  -19.5 °C -9.9 °F /  -23.3 °C 30.69in /  1039.2hPa SW 8.1mph /  13km/h 8.1mph /  13km/h 72% 0.00in /  0mm 457.0 W/m2
11:16 -3.1 °F /  -19.5 °C -9.9 °F /  -23.3 °C 30.69in /  1039.2hPa SW 9.0mph /  14.5km/h 9.0mph /  14.5km/h 72% 0.00in /  0mm 457.0 W/m2
11:17 -3.1 °F /  -19.5 °C -9.9 °F /  -23.3 °C 30.69in /  1039.2hPa WSW 10.4mph /  16.7km/h 10.4mph /  16.7km/h 72% 0.00in /  0mm 455.0 W/m2
11:22 -2.8 °F /  -19.3 °C -9.6 °F /  -23.1 °C 30.68in /  1038.8hPa SW 7.0mph /  11.3km/h 7.0mph /  11.3km/h 72% 0.00in /  0mm 459.0 W/m2
11:26 -2.4 °F /  -19.1 °C -9.2 °F /  -22.9 °C 30.68in /  1038.8hPa West 8.1mph /  13km/h 8.1mph /  13km/h 72% 0.00in /  0mm 462.0 W/m2
11:27 -2.3 °F /  -19.1 °C -9.1 °F /  -22.8 °C 30.68in /  1038.8hPa WSW 10.4mph /  16.7km/h 10.4mph /  16.7km/h 72% 0.00in /  0mm 462.0 W/m2
11:31 -1.9 °F /  -18.8 °C -8.7 °F /  -22.6 °C 30.68in /  1038.8hPa SW 5.8mph /  9.3km/h 5.8mph /  9.3km/h 72% 0.00in /  0mm 466.0 W/m2
11:33 -1.8 °F /  -18.8 °C -8.3 °F /  -22.4 °C 30.67in /  1038.5hPa WSW 6.9mph /  11.1km/h 6.9mph /  11.1km/h 73% 0.00in /  0mm 464.0 W/m2
11:38 -1.3 °F /  -18.5 °C -8.1 °F /  -22.3 °C 30.67in /  1038.5hPa WSW 10.4mph /  16.7km/h 10.4mph /  16.7km/h 72% 0.00in /  0mm 468.0 W/m2
11:43 -1.0 °F /  -18.3 °C -7.6 °F /  -22 °C 30.67in /  1038.5hPa SW 11.5mph /  18.5km/h 11.5mph /  18.5km/h 73% 0.00in /  0mm 469.0 W/m2
11:44 -1.0 °F /  -18.3 °C -7.6 °F /  -22 °C 30.67in /  1038.5hPa West 10.4mph /  16.7km/h 10.4mph /  16.7km/h 73% 0.00in /  0mm 466.0 W/m2
11:46 -0.8 °F /  -18.2 °C -7.4 °F /  -21.9 °C 30.67in /  1038.5hPa WSW 8.1mph /  13km/h 8.1mph /  13km/h 73% 0.00in /  0mm 468.0 W/m2
11:51 -0.3 °F /  -17.9 °C -6.9 °F /  -21.6 °C 30.66in /  1038.1hPa WSW 6.9mph /  11.1km/h 6.9mph /  11.1km/h 73% 0.00in /  0mm 469.0 W/m2
11:52 -0.3 °F /  -17.9 °C -6.9 °F /  -21.6 °C 30.66in /  1038.1hPa SW 6.9mph /  11.1km/h 6.9mph /  11.1km/h 73% 0.00in /  0mm 469.0 W/m2
11:57 0.0 °F /  -17.8 °C -6.9 °F /  -21.6 °C 30.66in /  1038.1hPa SW 5.0mph /  8km/h 5.0mph /  8km/h 72% 0.00in /  0mm 469.0 W/m2
11:58 0.0 °F /  -17.8 °C -6.9 °F /  -21.6 °C 30.66in /  1038.1hPa SW 6.9mph /  11.1km/h 6.9mph /  11.1km/h 72% 0.00in /  0mm 469.0 W/m2
12:03 0.0 °F /  -17.8 °C -6.9 °F /  -21.6 °C 30.65in /  1037.8hPa WSW 8.1mph /  13km/h 8.1mph /  13km/h 72% 0.00in /  0mm 471.0 W/m2
12:08 0.0 °F /  -17.8 °C -6.9 °F /  -21.6 °C 30.65in /  1037.8hPa WSW 8.1mph /  13km/h 8.1mph /  13km/h 72% 0.00in /  0mm 468.0 W/m2
12:11 0.2 °F /  -17.7 °C -6.7 °F /  -21.5 °C 30.65in /  1037.8hPa SW 9.2mph /  14.8km/h 9.2mph /  14.8km/h 72% 0.00in /  0mm 468.0 W/m2
12:14 0.2 °F /  -17.7 °C -6.7 °F /  -21.5 °C 30.65in /  1037.8hPa SW 6.9mph /  11.1km/h 6.9mph /  11.1km/h 72% 0.00in /  0mm 468.0 W/m2
12:19 0.4 °F /  -17.6 °C -6.5 °F /  -21.4 °C 30.64in /  1037.5hPa WSW 8.1mph /  13km/h 8.1mph /  13km/h 72% 0.00in /  0mm 466.0 W/m2
12:20 0.4 °F /  -17.6 °C -6.5 °F /  -21.4 °C 30.64in /  1037.5hPa SSW 3.5mph /  5.6km/h   72% 0.00in /  0mm 466.0 W/m2
12:25 0.4 °F /  -17.6 °C -6.8 °F /  -21.6 °C 30.64in /  1037.5hPa SW 8.1mph /  13km/h 8.1mph /  13km/h 71% 0.00in /  0mm 462.0 W/m2
12:26 0.4 °F /  -17.6 °C -6.8 °F /  -21.6 °C 30.64in /  1037.5hPa SW 6.0mph /  9.7km/h 6.0mph /  9.7km/h 71% 0.00in /  0mm 462.0 W/m2
12:33 0.3 °F /  -17.6 °C -6.9 °F /  -21.6 °C 30.64in /  1037.5hPa SW 6.9mph /  11.1km/h 6.9mph /  11.1km/h 71% 0.00in /  0mm 461.0 W/m2
12:38 0.4 °F /  -17.6 °C -6.5 °F /  -21.4 °C 30.63in /  1037.1hPa WSW 9.2mph /  14.8km/h 9.2mph /  14.8km/h 72% 0.00in /  0mm 457.0 W/m2
12:40 0.5 °F /  -17.5 °C -6.4 °F /  -21.3 °C 30.63in /  1037.1hPa WSW 8.1mph /  13km/h 8.1mph /  13km/h 72% 0.00in /  0mm 454.0 W/m2
12:44 0.7 °F /  -17.4 °C -6.2 °F /  -21.2 °C 30.62in /  1036.8hPa North 5.0mph /  8km/h 5.0mph /  8km/h 72% 0.00in /  0mm 454.0 W/m2
12:46 0.8 °F /  -17.3 °C -6.1 °F /  -21.2 °C 30.62in /  1036.8hPa SSW 5.8mph /  9.3km/h 5.8mph /  9.3km/h 72% 0.00in /  0mm 450.0 W/m2
12:51 1.2 °F /  -17.1 °C -5.4 °F /  -20.8 °C 30.62in /  1036.8hPa WSW 6.9mph /  11.1km/h 6.9mph /  11.1km/h 73% 0.00in /  0mm 446.0 W/m2
12:52 1.2 °F /  -17.1 °C -5.4 °F /  -20.8 °C 30.62in /  1036.8hPa SW 8.1mph /  13km/h 8.1mph /  13km/h 73% 0.00in /  0mm 445.0 W/m2
12:57 1.4 °F /  -17 °C -5.5 °F /  -20.8 °C 30.62in /  1036.8hPa WSW 8.1mph /  13km/h 8.1mph /  13km/h 72% 0.00in /  0mm 443.0 W/m2
13:02 1.4 °F /  -17 °C -5.8 °F /  -21 °C 30.61in /  1036.5hPa SSW 8.1mph /  13km/h 8.1mph /  13km/h 71% 0.00in /  0mm 436.0 W/m2
13:03 1.4 °F /  -17 °C -5.8 °F /  -21 °C 30.61in /  1036.5hPa SSW 10.4mph /  16.7km/h 10.4mph /  16.7km/h 71% 0.00in /  0mm 438.0 W/m2
13:08 1.5 °F /  -16.9 °C -5.4 °F /  -20.8 °C 30.61in /  1036.5hPa SW 6.9mph /  11.1km/h 6.9mph /  11.1km/h 72% 0.00in /  0mm 431.0 W/m2
13:09 1.5 °F /  -16.9 °C -5.4 °F /  -20.8 °C 30.61in /  1036.5hPa North 6.0mph /  9.7km/h 6.0mph /  9.7km/h 72% 0.00in /  0mm 429.0 W/m2
13:14 1.5 °F /  -16.9 °C -5.7 °F /  -20.9 °C 30.61in /  1036.5hPa SW 10.4mph /  16.7km/h 10.4mph /  16.7km/h 71% 0.00in /  0mm 424.0 W/m2
13:15 1.4 °F /  -17 °C -5.8 °F /  -21 °C 30.61in /  1036.5hPa SW 11.5mph /  18.5km/h 11.5mph /  18.5km/h 71% 0.00in /  0mm 422.0 W/m2
13:21 1.3 °F /  -17.1 °C -5.9 °F /  -21.1 °C 30.60in /  1036.1hPa North 4.6mph /  7.4km/h 4.6mph /  7.4km/h 71% 0.00in /  0mm 415.0 W/m2
13:25 1.2 °F /  -17.1 °C -6.0 °F /  -21.1 °C 30.60in /  1036.1hPa SW 8.1mph /  13km/h 8.1mph /  13km/h 71% 0.00in /  0mm 410.0 W/m2
13:27 1.2 °F /  -17.1 °C -5.7 °F /  -20.9 °C 30.60in /  1036.1hPa SW 11.5mph /  18.5km/h 11.5mph /  18.5km/h 72% 0.00in /  0mm 406.0 W/m2
13:32 1.3 °F /  -17.1 °C -5.6 °F /  -20.9 °C 30.60in /  1036.1hPa WSW 4.0mph /  6.4km/h 4.0mph /  6.4km/h 72% 0.00in /  0mm 403.0 W/m2
13:37 1.5 °F /  -16.9 °C -5.4 °F /  -20.8 °C 30.60in /  1036.1hPa North 10.4mph /  16.7km/h 10.4mph /  16.7km/h 72% 0.00in /  0mm 392.0 W/m2
13:39 1.6 °F /  -16.9 °C -5.3 °F /  -20.7 °C 30.59in /  1035.8hPa SW 7.0mph /  11.3km/h 7.0mph /  11.3km/h 72% 0.00in /  0mm 388.0 W/m2
13:43 1.7 °F /  -16.8 °C -5.2 °F /  -20.7 °C 30.59in /  1035.8hPa SW 8.1mph /  13km/h 8.1mph /  13km/h 72% 0.00in /  0mm 385.0 W/m2
13:45 1.8 °F /  -16.8 °C -5.2 °F /  -20.7 °C 30.59in /  1035.8hPa SSW 6.9mph /  11.1km/h 6.9mph /  11.1km/h 72% 0.00in /  0mm 380.0 W/m2
13:48 1.8 °F /  -16.8 °C -5.2 °F /  -20.7 °C 30.59in /  1035.8hPa SSW 6.9mph /  11.1km/h 6.9mph /  11.1km/h 72% 0.00in /  0mm 374.0 W/m2
13:53 1.7 °F /  -16.8 °C -5.2 °F /  -20.7 °C 30.58in /  1035.4hPa SSW 10.4mph /  16.7km/h 10.4mph /  16.7km/h 72% 0.00in /  0mm 367.0 W/m2
13:59 1.7 °F /  -16.8 °C -5.2 °F /  -20.7 °C 30.58in /  1035.4hPa SW 9.2mph /  14.8km/h 9.2mph /  14.8km/h 72% 0.00in /  0mm 357.0 W/m2
14:02 1.7 °F /  -16.8 °C -5.2 °F /  -20.7 °C 30.58in /  1035.4hPa SW 11.5mph /  18.5km/h 11.5mph /  18.5km/h 72% 0.00in /  0mm 350.0 W/m2
14:05 1.8 °F /  -16.8 °C -5.2 °F /  -20.7 °C 30.58in /  1035.4hPa SSW 11.5mph /  18.5km/h 11.5mph /  18.5km/h 72% 0.00in /  0mm 346.0 W/m2
14:10 2.0 °F /  -16.7 °C -5.0 °F /  -20.6 °C 30.58in /  1035.4hPa SW 6.9mph /  11.1km/h   72% 0.00in /  0mm 334.0 W/m2
14:11 2.1 °F /  -16.6 °C -4.9 °F /  -20.5 °C 30.57in /  1035.1hPa WSW 2.3mph /  3.7km/h 2.3mph /  3.7km/h 72% 0.00in /  0mm 332.0 W/m2
14:16 2.3 °F /  -16.5 °C -4.7 °F /  -20.4 °C 30.57in /  1035.1hPa SW 3.5mph /  5.6km/h 3.5mph /  5.6km/h 72% 0.00in /  0mm 320.0 W/m2
14:17 2.4 °F /  -16.4 °C -4.6 °F /  -20.3 °C 30.57in /  1035.1hPa SW 3.5mph /  5.6km/h 3.5mph /  5.6km/h 72% 0.00in /  0mm 320.0 W/m2
14:22 2.3 °F /  -16.5 °C -4.7 °F /  -20.4 °C 30.57in /  1035.1hPa SW 9.2mph /  14.8km/h 9.2mph /  14.8km/h 72% 0.00in /  0mm 311.0 W/m2
14:24 2.1 °F /  -16.6 °C -4.9 °F /  -20.5 °C 30.57in /  1035.1hPa SSW 9.2mph /  14.8km/h 9.2mph /  14.8km/h 72% 0.00in /  0mm 308.0 W/m2
14:29 1.9 °F /  -16.7 °C -5.1 °F /  -20.6 °C 30.57in /  1035.1hPa SW 11.5mph /  18.5km/h 11.5mph /  18.5km/h 72% 0.00in /  0mm 295.0 W/m2
14:30 1.9 °F /  -16.7 °C -5.1 °F /  -20.6 °C 30.57in /  1035.1hPa West 10.4mph /  16.7km/h 10.4mph /  16.7km/h 72% 0.00in /  0mm 294.0 W/m2
14:34 2.0 °F /  -16.7 °C -4.7 °F /  -20.4 °C 30.57in /  1035.1hPa SW 6.9mph /  11.1km/h 6.9mph /  11.1km/h 73% 0.00in /  0mm 283.0 W/m2
14:40 2.4 °F /  -16.4 °C -4.3 °F /  -20.2 °C 30.57in /  1035.1hPa SSW 8.1mph /  13km/h 8.1mph /  13km/h 73% 0.00in /  0mm 267.0 W/m2
14:45 2.4 °F /  -16.4 °C -4.6 °F /  -20.3 °C 30.57in /  1035.1hPa North 9.0mph /  14.5km/h 9.0mph /  14.5km/h 72% 0.00in /  0mm 253.0 W/m2
14:46 2.5 °F /  -16.4 °C -4.5 °F /  -20.3 °C 30.57in /  1035.1hPa North 9.2mph /  14.8km/h 9.2mph /  14.8km/h 72% 0.00in /  0mm 253.0 W/m2
14:51 2.4 °F /  -16.4 °C -4.6 °F /  -20.3 °C 30.57in /  1035.1hPa SW 11.5mph /  18.5km/h 11.5mph /  18.5km/h 72% 0.00in /  0mm 239.0 W/m2
14:56 2.4 °F /  -16.4 °C -4.6 °F /  -20.3 °C 30.56in /  1034.8hPa SW 8.0mph /  12.9km/h 8.0mph /  12.9km/h 72% 0.00in /  0mm 223.0 W/m2
15:01 2.3 °F /  -16.5 °C -4.7 °F /  -20.4 °C 30.56in /  1034.8hPa SW 9.2mph /  14.8km/h 9.2mph /  14.8km/h 72% 0.00in /  0mm 207.0 W/m2
15:03 2.3 °F /  -16.5 °C -4.7 °F /  -20.4 °C 30.56in /  1034.8hPa SW 13.0mph /  20.9km/h 13.0mph /  20.9km/h 72% 0.00in /  0mm 202.0 W/m2
15:04 2.2 °F /  -16.6 °C -4.8 °F /  -20.4 °C 30.55in /  1034.4hPa WSW 13.8mph /  22.2km/h 13.8mph /  22.2km/h 72% 0.00in /  0mm 195.0 W/m2
15:08 2.4 °F /  -16.4 °C -4.6 °F /  -20.3 °C 30.55in /  1034.4hPa SW 9.2mph /  14.8km/h 9.2mph /  14.8km/h 72% 0.00in /  0mm 185.0 W/m2
15:13 2.6 °F /  -16.3 °C -4.4 °F /  -20.2 °C 30.55in /  1034.4hPa SSW 6.9mph /  11.1km/h 6.9mph /  11.1km/h 72% 0.00in /  0mm 169.0 W/m2
15:19 2.6 °F /  -16.3 °C -4.4 °F /  -20.2 °C 30.55in /  1034.4hPa SSW 6.9mph /  11.1km/h 6.9mph /  11.1km/h 72% 0.00in /  0mm 148.0 W/m2
15:20 2.6 °F /  -16.3 °C -4.4 °F /  -20.2 °C 30.55in /  1034.4hPa SSW 6.9mph /  11.1km/h 6.9mph /  11.1km/h 72% 0.00in /  0mm 144.0 W/m2
15:25 2.4 °F /  -16.4 °C -4.6 °F /  -20.3 °C 30.55in /  1034.4hPa SSW 9.2mph /  14.8km/h 9.2mph /  14.8km/h 72% 0.00in /  0mm 132.0 W/m2
15:27 2.3 °F /  -16.5 °C -4.7 °F /  -20.4 °C 30.55in /  1034.4hPa South 6.9mph /  11.1km/h 6.9mph /  11.1km/h 72% 0.00in /  0mm 125.0 W/m2
15:28 2.2 °F /  -16.6 °C -4.8 °F /  -20.4 °C 30.54in /  1034.1hPa SSW 8.1mph /  13km/h 8.1mph /  13km/h 72% 0.00in /  0mm 121.0 W/m2
15:32 2.2 °F /  -16.6 °C -4.5 °F /  -20.3 °C 30.54in /  1034.1hPa SSW 9.2mph /  14.8km/h 9.2mph /  14.8km/h 73% 0.00in /  0mm 111.0 W/m2
15:37 2.1 °F /  -16.6 °C -4.9 °F /  -20.5 °C 30.54in /  1034.1hPa SSW 5.0mph /  8km/h 5.0mph /  8km/h 72% 0.00in /  0mm 97.0 W/m2
15:38 2.0 °F /  -16.7 °C -5.0 °F /  -20.6 °C 30.54in /  1034.1hPa SSW 6.9mph /  11.1km/h 6.9mph /  11.1km/h 72% 0.00in /  0mm 90.0 W/m2
15:43 1.8 °F /  -16.8 °C -5.2 °F /  -20.7 °C 30.54in /  1034.1hPa SSW 11.5mph /  18.5km/h 11.5mph /  18.5km/h 72% 0.00in /  0mm 25.0 W/m2
15:46 1.7 °F /  -16.8 °C -5.0 °F /  -20.6 °C 30.54in /  1034.1hPa SSW 8.1mph /  13km/h 8.1mph /  13km/h 73% 0.00in /  0mm 23.0 W/m2
15:51 1.5 °F /  -16.9 °C -5.2 °F /  -20.7 °C 30.54in /  1034.1hPa SW 6.9mph /  11.1km/h 6.9mph /  11.1km/h 73% 0.00in /  0mm 21.0 W/m2
15:52 1.5 °F /  -16.9 °C -5.2 °F /  -20.7 °C 30.54in /  1034.1hPa SSW 7.0mph /  11.3km/h 7.0mph /  11.3km/h 73% 0.00in /  0mm 21.0 W/m2
15:54 1.4 °F /  -17 °C -5.3 °F /  -20.7 °C 30.53in /  1033.7hPa SSW 3.5mph /  5.6km/h 3.5mph /  5.6km/h 73% 0.00in /  0mm 21.0 W/m2
15:59 1.4 °F /  -17 °C -5.0 °F /  -20.6 °C 30.53in /  1033.7hPa SSW 10.4mph /  16.7km/h 10.4mph /  16.7km/h 74% 0.00in /  0mm 19.0 W/m2
16:03 1.3 °F /  -17.1 °C -4.8 °F /  -20.4 °C 30.53in /  1033.7hPa SSW 6.9mph /  11.1km/h 6.9mph /  11.1km/h 75% 0.00in /  0mm 18.0 W/m2
16:06 1.2 °F /  -17.1 °C -4.9 °F /  -20.5 °C 30.52in /  1033.4hPa SSW 5.8mph /  9.3km/h 5.8mph /  9.3km/h 75% 0.00in /  0mm 16.0 W/m2
16:11 1.0 °F /  -17.2 °C -4.8 °F /  -20.4 °C 30.52in /  1033.4hPa SSW 8.1mph /  13km/h 8.1mph /  13km/h 76% 0.00in /  0mm 14.0 W/m2
16:13 1.0 °F /  -17.2 °C -4.8 °F /  -20.4 °C 30.52in /  1033.4hPa SSW 9.2mph /  14.8km/h 9.2mph /  14.8km/h 76% 0.00in /  0mm 14.0 W/m2
16:16 0.9 °F /  -17.3 °C -4.9 °F /  -20.5 °C 30.52in /  1033.4hPa SSW 6.9mph /  11.1km/h 6.9mph /  11.1km/h 76% 0.00in /  0mm 12.0 W/m2
16:18 0.9 °F /  -17.3 °C -4.9 °F /  -20.5 °C 30.52in /  1033.4hPa North 5.8mph /  9.3km/h 5.8mph /  9.3km/h 76% 0.00in /  0mm 12.0 W/m2
16:23 0.8 °F /  -17.3 °C -5.0 °F /  -20.6 °C 30.51in /  1033.1hPa SSW 3.5mph /  5.6km/h 3.5mph /  5.6km/h 76% 0.00in /  0mm 11.0 W/m2
16:28 0.7 °F /  -17.4 °C -5.1 °F /  -20.6 °C 30.51in /  1033.1hPa SSW 13.8mph /  22.2km/h 13.8mph /  22.2km/h 76% 0.00in /  0mm 7.0 W/m2
16:29 0.7 °F /  -17.4 °C -4.8 °F /  -20.4 °C 30.51in /  1033.1hPa South 11.5mph /  18.5km/h 11.5mph /  18.5km/h 77% 0.00in /  0mm 7.0 W/m2
16:34 0.6 °F /  -17.4 °C -4.9 °F /  -20.5 °C 30.51in /  1033.1hPa SSW 8.1mph /  13km/h 8.1mph /  13km/h 77% 0.00in /  0mm 5.0 W/m2
16:39 0.5 °F /  -17.5 °C -5.0 °F /  -20.6 °C 30.51in /  1033.1hPa SSW 6.9mph /  11.1km/h 6.9mph /  11.1km/h 77% 0.00in /  0mm 0.0 W/m2
16:44 0.4 °F /  -17.6 °C -5.1 °F /  -20.6 °C 30.51in /  1033.1hPa North 10.4mph /  16.7km/h 10.4mph /  16.7km/h 77% 0.00in /  0mm 0.0 W/m2
16:46 0.3 °F /  -17.6 °C -5.2 °F /  -20.7 °C 30.51in /  1033.1hPa South 9.2mph /  14.8km/h 9.2mph /  14.8km/h 77% 0.00in /  0mm 0.0 W/m2
16:47 0.3 °F /  -17.6 °C -5.2 °F /  -20.7 °C 30.51in /  1033.1hPa SSW 10.0mph /  16.1km/h 10.0mph /  16.1km/h 77% 0.00in /  0mm 0.0 W/m2
16:52 0.2 °F /  -17.7 °C -5.3 °F /  -20.7 °C 30.50in /  1032.7hPa SSW 8.1mph /  13km/h 8.1mph /  13km/h 77% 0.00in /  0mm 0.0 W/m2
16:55 0.2 °F /  -17.7 °C -5.3 °F /  -20.7 °C 30.50in /  1032.7hPa SSW 8.1mph /  13km/h 8.1mph /  13km/h 77% 0.00in /  0mm 0.0 W/m2
17:01 0.1 °F /  -17.7 °C -5.4 °F /  -20.8 °C 30.50in /  1032.7hPa SSW 8.1mph /  13km/h 8.1mph /  13km/h 77% 0.00in /  0mm 0.0 W/m2
17:02 0.1 °F /  -17.7 °C -5.4 °F /  -20.8 °C 30.50in /  1032.7hPa SSW 6.9mph /  11.1km/h 6.9mph /  11.1km/h 77% 0.00in /  0mm 0.0 W/m2
17:06 0.0 °F /  -17.8 °C -5.5 °F /  -20.8 °C 30.50in /  1032.7hPa SSW 6.9mph /  11.1km/h 6.9mph /  11.1km/h 77% 0.00in /  0mm 0.0 W/m2
17:11 -0.1 °F /  -17.8 °C -5.6 °F /  -20.9 °C 30.49in /  1032.4hPa SSW 8.1mph /  13km/h 8.1mph /  13km/h 77% 0.00in /  0mm 0.0 W/m2
17:13 -0.1 °F /  -17.8 °C -5.6 °F /  -20.9 °C 30.49in /  1032.4hPa South 9.0mph /  14.5km/h 9.0mph /  14.5km/h 77% 0.00in /  0mm 0.0 W/m2
17:18 -0.4 °F /  -18 °C -5.9 °F /  -21.1 °C 30.49in /  1032.4hPa SW 4.6mph /  7.4km/h 4.6mph /  7.4km/h 77% 0.00in /  0mm 0.0 W/m2
17:23 -0.7 °F /  -18.2 °C -6.2 °F /  -21.2 °C 30.48in /  1032.1hPa South 4.6mph /  7.4km/h 4.6mph /  7.4km/h 77% 0.00in /  0mm 0.0 W/m2
17:24 -0.8 °F /  -18.2 °C -6.3 °F /  -21.3 °C 30.48in /  1032.1hPa SSW 4.6mph /  7.4km/h 4.6mph /  7.4km/h 77% 0.00in /  0mm 0.0 W/m2
17:29 -1.1 °F /  -18.4 °C -6.6 °F /  -21.4 °C 30.48in /  1032.1hPa SSW 3.5mph /  5.6km/h 3.5mph /  5.6km/h 77% 0.00in /  0mm 0.0 W/m2
17:34 -1.2 °F /  -18.4 °C -6.4 °F /  -21.3 °C 30.47in /  1031.7hPa SSW 4.6mph /  7.4km/h 4.6mph /  7.4km/h 78% 0.00in /  0mm 0.0 W/m2
17:35 -1.2 °F /  -18.4 °C -6.4 °F /  -21.3 °C 30.47in /  1031.7hPa SSW 4.6mph /  7.4km/h 4.6mph /  7.4km/h 78% 0.00in /  0mm 0.0 W/m2
17:40 -1.3 °F /  -18.5 °C -6.2 °F /  -21.2 °C 30.48in /  1032.1hPa SSW 8.1mph /  13km/h 8.1mph /  13km/h 79% 0.00in /  0mm 0.0 W/m2
17:44 -1.3 °F /  -18.5 °C -6.2 °F /  -21.2 °C 30.48in /  1032.1hPa SSW 5.8mph /  9.3km/h 5.8mph /  9.3km/h 79% 0.00in /  0mm 0.0 W/m2
17:51 -1.2 °F /  -18.4 °C -6.1 °F /  -21.2 °C 30.47in /  1031.7hPa SW 4.6mph /  7.4km/h 4.6mph /  7.4km/h 79% 0.00in /  0mm 0.0 W/m2
17:56 -1.2 °F /  -18.4 °C -6.1 °F /  -21.2 °C 30.47in /  1031.7hPa SW 10.4mph /  16.7km/h 10.4mph /  16.7km/h 79% 0.00in /  0mm 0.0 W/m2
17:57 -1.1 °F /  -18.4 °C -6.0 °F /  -21.1 °C 30.47in /  1031.7hPa SSW 5.8mph /  9.3km/h 5.8mph /  9.3km/h 79% 0.00in /  0mm 0.0 W/m2
17:59 -1.0 °F /  -18.3 °C -5.9 °F /  -21.1 °C 30.47in /  1031.7hPa SSW 6.9mph /  11.1km/h 6.9mph /  11.1km/h 79% 0.00in /  0mm 0.0 W/m2
18:04 -0.8 °F /  -18.2 °C -5.7 °F /  -20.9 °C 30.47in /  1031.7hPa SW 10.4mph /  16.7km/h 10.4mph /  16.7km/h 79% 0.00in /  0mm 0.0 W/m2
18:05 -0.8 °F /  -18.2 °C -5.7 °F /  -20.9 °C 30.47in /  1031.7hPa SSW 10.4mph /  16.7km/h 10.4mph /  16.7km/h 79% 0.00in /  0mm 0.0 W/m2
18:10 -0.7 °F /  -18.2 °C -5.9 °F /  -21.1 °C 30.47in /  1031.7hPa South 9.2mph /  14.8km/h 9.2mph /  14.8km/h 78% 0.00in /  0mm 0.0 W/m2
18:12 -0.7 °F /  -18.2 °C -5.9 °F /  -21.1 °C 30.47in /  1031.7hPa SW 11.5mph /  18.5km/h 11.5mph /  18.5km/h 78% 0.00in /  0mm 0.0 W/m2
18:19 -0.6 °F /  -18.1 °C -5.8 °F /  -21 °C 30.47in /  1031.7hPa SSW 11.5mph /  18.5km/h 11.5mph /  18.5km/h 78% 0.00in /  0mm 0.0 W/m2
18:21 -0.6 °F /  -18.1 °C -5.8 °F /  -21 °C 30.47in /  1031.7hPa SSW 11.5mph /  18.5km/h 11.5mph /  18.5km/h 78% 0.00in /  0mm 0.0 W/m2
18:24 -0.6 °F /  -18.1 °C -5.8 °F /  -21 °C 30.47in /  1031.7hPa SSW 13.8mph /  22.2km/h 13.8mph /  22.2km/h 78% 0.00in /  0mm 0.0 W/m2
18:29 -0.7 °F /  -18.2 °C -5.7 °F /  -20.9 °C 30.46in /  1031.4hPa SW 9.2mph /  14.8km/h 9.2mph /  14.8km/h 79% 0.00in /  0mm 0.0 W/m2
18:30 -0.7 °F /  -18.2 °C -5.9 °F /  -21.1 °C 30.46in /  1031.4hPa SSW 8.1mph /  13km/h 8.1mph /  13km/h 78% 0.00in /  0mm 0.0 W/m2
18:35 -0.7 °F /  -18.2 °C -5.7 °F /  -20.9 °C 30.46in /  1031.4hPa SSW 6.9mph /  11.1km/h 6.9mph /  11.1km/h 79% 0.00in /  0mm 0.0 W/m2
18:41 -0.7 °F /  -18.2 °C -5.7 °F /  -20.9 °C 30.45in /  1031hPa South 11.5mph /  18.5km/h 11.5mph /  18.5km/h 79% 0.00in /  0mm 0.0 W/m2
18:46 -0.7 °F /  -18.2 °C -5.7 °F /  -20.9 °C 30.45in /  1031hPa SSW 11.5mph /  18.5km/h 11.5mph /  18.5km/h 79% 0.00in /  0mm 0.0 W/m2
18:48 -0.7 °F /  -18.2 °C -5.7 °F /  -20.9 °C 30.45in /  1031hPa SSW 8.1mph /  13km/h 8.1mph /  13km/h 79% 0.00in /  0mm 0.0 W/m2
18:53 -0.8 °F /  -18.2 °C -5.7 °F /  -20.9 °C 30.44in /  1030.7hPa SSW 11.5mph /  18.5km/h 11.5mph /  18.5km/h 79% 0.00in /  0mm 0.0 W/m2
18:54 -0.8 °F /  -18.2 °C -5.7 °F /  -20.9 °C 30.43in /  1030.4hPa SSW 9.0mph /  14.5km/h 9.0mph /  14.5km/h 79% 0.00in /  0mm 0.0 W/m2
18:59 -0.9 °F /  -18.3 °C -5.8 °F /  -21 °C 30.43in /  1030.4hPa SSW 8.1mph /  13km/h 8.1mph /  13km/h 79% 0.00in /  0mm 0.0 W/m2
19:00 -0.9 °F /  -18.3 °C -5.8 °F /  -21 °C 30.43in /  1030.4hPa SSW 6.9mph /  11.1km/h 6.9mph /  11.1km/h 79% 0.00in /  0mm 0.0 W/m2
19:01 -0.9 °F /  -18.3 °C -5.8 °F /  -21 °C 30.43in /  1030.4hPa SW 5.0mph /  8km/h 5.0mph /  8km/h 79% 0.00in /  0mm 0.0 W/m2
19:05 -0.9 °F /  -18.3 °C -5.6 °F /  -20.9 °C 30.42in /  1030hPa SSW 6.9mph /  11.1km/h 6.9mph /  11.1km/h 80% 0.00in /  0mm 0.0 W/m2
19:07 -0.8 °F /  -18.2 °C -5.5 °F /  -20.8 °C 30.42in /  1030hPa SSW 6.9mph /  11.1km/h 6.9mph /  11.1km/h 80% 0.00in /  0mm 0.0 W/m2
19:12 -0.6 °F /  -18.1 °C -5.3 °F /  -20.7 °C 30.42in /  1030hPa SSW 5.0mph /  8km/h 5.0mph /  8km/h 80% 0.00in /  0mm 0.0 W/m2
19:17 -0.4 °F /  -18 °C -5.1 °F /  -20.6 °C 30.42in /  1030hPa SSW 6.9mph /  11.1km/h 6.9mph /  11.1km/h 80% 0.00in /  0mm 0.0 W/m2
19:18 -0.3 °F /  -17.9 °C -5.0 °F /  -20.6 °C 30.42in /  1030hPa WSW 9.2mph /  14.8km/h 9.2mph /  14.8km/h 80% 0.00in /  0mm 0.0 W/m2
19:20 -0.2 °F /  -17.9 °C -4.9 °F /  -20.5 °C 30.41in /  1029.7hPa SSW 7.0mph /  11.3km/h 7.0mph /  11.3km/h 80% 0.00in /  0mm 0.0 W/m2
19:23 0.0 °F /  -17.8 °C -4.7 °F /  -20.4 °C 30.41in /  1029.7hPa SSW 10.4mph /  16.7km/h 10.4mph /  16.7km/h 80% 0.00in /  0mm 0.0 W/m2
19:29 0.4 °F /  -17.6 °C -4.3 °F /  -20.2 °C 30.41in /  1029.7hPa SSW 8.1mph /  13km/h 8.1mph /  13km/h 80% 0.00in /  0mm 0.0 W/m2
19:31 0.6 °F /  -17.4 °C -4.1 °F /  -20.1 °C 30.40in /  1029.3hPa SSW 5.8mph /  9.3km/h 5.8mph /  9.3km/h 80% 0.00in /  0mm 0.0 W/m2
19:36 0.9 °F /  -17.3 °C -3.8 °F /  -19.9 °C 30.39in /  1029hPa South 6.9mph /  11.1km/h 6.9mph /  11.1km/h 80% 0.00in /  0mm 0.0 W/m2
19:44 1.2 °F /  -17.1 °C -3.8 °F /  -19.9 °C 30.39in /  1029hPa South 6.9mph /  11.1km/h 6.9mph /  11.1km/h 79% 0.00in /  0mm 0.0 W/m2
19:56 0.9 °F /  -17.3 °C -4.4 °F /  -20.2 °C 30.38in /  1028.7hPa South 4.6mph /  7.4km/h 4.6mph /  7.4km/h 78% 0.00in /  0mm 0.0 W/m2
19:57 0.9 °F /  -17.3 °C -4.4 °F /  -20.2 °C 30.38in /  1028.7hPa SW 9.2mph /  14.8km/h 9.2mph /  14.8km/h 78% 0.00in /  0mm 0.0 W/m2
20:02 0.7 °F /  -17.4 °C -4.6 °F /  -20.3 °C 30.38in /  1028.7hPa SSW 4.6mph /  7.4km/h 4.6mph /  7.4km/h 78% 0.00in /  0mm 0.0 W/m2
20:03 0.7 °F /  -17.4 °C -4.6 °F /  -20.3 °C 30.39in /  1029hPa SSW 2.3mph /  3.7km/h 2.3mph /  3.7km/h 78% 0.00in /  0mm 0.0 W/m2
20:04 0.7 °F /  -17.4 °C -4.6 °F /  -20.3 °C 30.38in /  1028.7hPa SSW 2.3mph /  3.7km/h 2.3mph /  3.7km/h 78% 0.00in /  0mm 0.0 W/m2
20:10 0.6 °F /  -17.4 °C -4.6 °F /  -20.3 °C 30.39in /  1029hPa SSW 8.1mph /  13km/h 8.1mph /  13km/h 78% 0.00in /  0mm 0.0 W/m2
20:15 0.6 °F /  -17.4 °C -4.4 °F /  -20.2 °C 30.39in /  1029hPa SSW 3.5mph /  5.6km/h 3.5mph /  5.6km/h 79% 0.00in /  0mm 0.0 W/m2
20:17 0.6 °F /  -17.4 °C -4.4 °F /  -20.2 °C 30.39in /  1029hPa SSW 3.5mph /  5.6km/h 3.5mph /  5.6km/h 79% 0.00in /  0mm 0.0 W/m2
20:22 0.8 °F /  -17.3 °C -4.2 °F /  -20.1 °C 30.38in /  1028.7hPa SSW 6.9mph /  11.1km/h 6.9mph /  11.1km/h 79% 0.00in /  0mm 0.0 W/m2
20:23 0.8 °F /  -17.3 °C -4.2 °F /  -20.1 °C 30.38in /  1028.7hPa SSW 4.6mph /  7.4km/h 4.6mph /  7.4km/h 79% 0.00in /  0mm 0.0 W/m2
20:28 0.9 °F /  -17.3 °C -4.1 °F /  -20.1 °C 30.31in /  1026.3hPa SSW 3.5mph /  5.6km/h 3.5mph /  5.6km/h 79% 0.00in /  0mm 0.0 W/m2
20:31 1.0 °F /  -17.2 °C -4.0 °F /  -20 °C 30.31in /  1026.3hPa SSW 8.1mph /  13km/h 8.1mph /  13km/h 79% 0.00in /  0mm 0.0 W/m2
20:33 1.1 °F /  -17.2 °C -3.9 °F /  -19.9 °C 30.31in /  1026.3hPa SSW 5.8mph /  9.3km/h 5.8mph /  9.3km/h 79% 0.00in /  0mm 0.0 W/m2
20:37 1.1 °F /  -17.2 °C -3.9 °F /  -19.9 °C 30.30in /  1026hPa SSW 8.0mph /  12.9km/h 8.0mph /  12.9km/h 79% 0.00in /  0mm 0.0 W/m2
20:39 1.1 °F /  -17.2 °C -3.9 °F /  -19.9 °C 30.30in /  1026hPa SSW 6.9mph /  11.1km/h 6.9mph /  11.1km/h 79% 0.00in /  0mm 0.0 W/m2
20:44 1.1 °F /  -17.2 °C -3.9 °F /  -19.9 °C 30.30in /  1026hPa SSW 5.8mph /  9.3km/h 5.8mph /  9.3km/h 79% 0.00in /  0mm 0.0 W/m2
20:47 1.1 °F /  -17.2 °C -3.9 °F /  -19.9 °C 30.30in /  1026hPa SSW 5.8mph /  9.3km/h 5.8mph /  9.3km/h 79% 0.00in /  0mm 0.0 W/m2
20:48 1.1 °F /  -17.2 °C -3.9 °F /  -19.9 °C 30.30in /  1026hPa SSW 4.6mph /  7.4km/h 4.6mph /  7.4km/h 79% 0.00in /  0mm 0.0 W/m2
20:53 1.2 °F /  -17.1 °C -3.8 °F /  -19.9 °C 30.29in /  1025.6hPa SSW 4.6mph /  7.4km/h 4.6mph /  7.4km/h 79% 0.00in /  0mm 0.0 W/m2
20:54 1.2 °F /  -17.1 °C -3.8 °F /  -19.9 °C 30.29in /  1025.6hPa SSW 5.8mph /  9.3km/h 5.8mph /  9.3km/h 79% 0.00in /  0mm 0.0 W/m2
20:59 1.5 °F /  -16.9 °C -3.5 °F /  -19.7 °C 30.29in /  1025.6hPa North 9.0mph /  14.5km/h 9.0mph /  14.5km/h 79% 0.00in /  0mm 0.0 W/m2
21:00 1.5 °F /  -16.9 °C -3.5 °F /  -19.7 °C 30.29in /  1025.6hPa SSW 11.5mph /  18.5km/h 11.5mph /  18.5km/h 79% 0.00in /  0mm 0.0 W/m2
21:05 1.6 °F /  -16.9 °C -3.4 °F /  -19.7 °C 30.28in /  1025.3hPa South 8.1mph /  13km/h 8.1mph /  13km/h 79% 0.00in /  0mm 0.0 W/m2
21:06 1.7 °F /  -16.8 °C -3.3 °F /  -19.6 °C 30.28in /  1025.3hPa SSW 6.0mph /  9.7km/h 6.0mph /  9.7km/h 79% 0.00in /  0mm 0.0 W/m2
21:07 1.7 °F /  -16.8 °C -3.3 °F /  -19.6 °C 30.28in /  1025.3hPa SSW 9.2mph /  14.8km/h 9.2mph /  14.8km/h 79% 0.00in /  0mm 0.0 W/m2
21:14 1.8 °F /  -16.8 °C -3.2 °F /  -19.6 °C 30.28in /  1025.3hPa SSW 10.4mph /  16.7km/h 10.4mph /  16.7km/h 79% 0.00in /  0mm 0.0 W/m2
21:20 1.9 °F /  -16.7 °C -3.1 °F /  -19.5 °C 30.27in /  1024.9hPa SSW 9.2mph /  14.8km/h 9.2mph /  14.8km/h 79% 0.00in /  0mm 0.0 W/m2
21:25 2.2 °F /  -16.6 °C -2.8 °F /  -19.3 °C 30.27in /  1024.9hPa SSW 11.5mph /  18.5km/h 11.5mph /  18.5km/h 79% 0.00in /  0mm 0.0 W/m2
21:30 2.7 °F /  -16.3 °C -2.3 °F /  -19.1 °C 30.27in /  1024.9hPa SSW 9.2mph /  14.8km/h 9.2mph /  14.8km/h 79% 0.00in /  0mm 0.0 W/m2
21:40 3.3 °F /  -15.9 °C -2.0 °F /  -18.9 °C 30.26in /  1024.6hPa SSW 10.4mph /  16.7km/h 10.4mph /  16.7km/h 78% 0.00in /  0mm 0.0 W/m2
21:44 3.4 °F /  -15.9 °C -1.9 °F /  -18.8 °C 30.26in /  1024.6hPa South 11.5mph /  18.5km/h 11.5mph /  18.5km/h 78% 0.00in /  0mm 0.0 W/m2
21:47 3.5 °F /  -15.8 °C -1.8 °F /  -18.8 °C 30.26in /  1024.6hPa SW 11.5mph /  18.5km/h 11.5mph /  18.5km/h 78% 0.00in /  0mm 0.0 W/m2
21:49 3.7 °F /  -15.7 °C -1.6 °F /  -18.7 °C 30.26in /  1024.6hPa SSW 9.2mph /  14.8km/h 9.2mph /  14.8km/h 78% 0.00in /  0mm 0.0 W/m2
21:53 3.8 °F /  -15.7 °C -1.5 °F /  -18.6 °C 30.25in /  1024.3hPa SW 16.1mph /  25.9km/h 16.1mph /  25.9km/h 78% 0.00in /  0mm 0.0 W/m2
21:58 4.2 °F /  -15.4 °C -1.4 °F /  -18.6 °C 30.25in /  1024.3hPa SW 8.1mph /  13km/h 8.1mph /  13km/h 77% 0.00in /  0mm 0.0 W/m2
21:59 4.2 °F /  -15.4 °C -1.4 °F /  -18.6 °C 30.24in /  1023.9hPa SSW 11.5mph /  18.5km/h 11.5mph /  18.5km/h 77% 0.00in /  0mm 0.0 W/m2
22:04 4.4 °F /  -15.3 °C -1.2 °F /  -18.4 °C 30.24in /  1023.9hPa SSW 9.2mph /  14.8km/h 9.2mph /  14.8km/h 77% 0.00in /  0mm 0.0 W/m2
22:09 4.7 °F /  -15.2 °C -0.9 °F /  -18.3 °C 30.25in /  1024.3hPa SSW 11.5mph /  18.5km/h 11.5mph /  18.5km/h 77% 0.00in /  0mm 0.0 W/m2
22:12 4.8 °F /  -15.1 °C -1.1 °F /  -18.4 °C 30.24in /  1023.9hPa SSW 10.4mph /  16.7km/h 10.4mph /  16.7km/h 76% 0.00in /  0mm 0.0 W/m2
22:16 4.9 °F /  -15.1 °C -1.0 °F /  -18.3 °C 30.24in /  1023.9hPa South 12.7mph /  20.4km/h 12.7mph /  20.4km/h 76% 0.00in /  0mm 0.0 W/m2
22:21 5.2 °F /  -14.9 °C -0.7 °F /  -18.2 °C 30.24in /  1023.9hPa SW 13.0mph /  20.9km/h 13.0mph /  20.9km/h 76% 0.00in /  0mm 0.0 W/m2
22:26 5.5 °F /  -14.7 °C -0.4 °F /  -18 °C 30.23in /  1023.6hPa SW 12.7mph /  20.4km/h 12.7mph /  20.4km/h 76% 0.00in /  0mm 0.0 W/m2
22:30 5.6 °F /  -14.7 °C -0.3 °F /  -17.9 °C 30.23in /  1023.6hPa SSW 14.0mph /  22.5km/h 14.0mph /  22.5km/h 76% 0.00in /  0mm 0.0 W/m2
22:35 5.6 °F /  -14.7 °C -0.3 °F /  -17.9 °C 30.23in /  1023.6hPa SW 11.5mph /  18.5km/h 11.5mph /  18.5km/h 76% 0.00in /  0mm 0.0 W/m2
22:37 5.6 °F /  -14.7 °C -0.3 °F /  -17.9 °C 30.23in /  1023.6hPa SW 8.0mph /  12.9km/h 8.0mph /  12.9km/h 76% 0.00in /  0mm 0.0 W/m2
22:39 5.6 °F /  -14.7 °C -0.6 °F /  -18.1 °C 30.23in /  1023.6hPa SW 14.0mph /  22.5km/h 14.0mph /  22.5km/h 75% 0.00in /  0mm 0.0 W/m2
22:42 5.6 °F /  -14.7 °C -0.3 °F /  -17.9 °C 30.23in /  1023.6hPa SSW 6.9mph /  11.1km/h 6.9mph /  11.1km/h 76% 0.00in /  0mm 0.0 W/m2
22:47 5.6 °F /  -14.7 °C -0.3 °F /  -17.9 °C 30.23in /  1023.6hPa SW 9.2mph /  14.8km/h 9.2mph /  14.8km/h 76% 0.00in /  0mm 0.0 W/m2
22:48 5.6 °F /  -14.7 °C -0.3 °F /  -17.9 °C 30.23in /  1023.6hPa SSW 6.9mph /  11.1km/h 6.9mph /  11.1km/h 76% 0.00in /  0mm 0.0 W/m2
22:49 5.6 °F /  -14.7 °C -0.6 °F /  -18.1 °C 30.23in /  1023.6hPa SW 10.4mph /  16.7km/h 10.4mph /  16.7km/h 75% 0.00in /  0mm 0.0 W/m2
22:54 5.5 °F /  -14.7 °C -0.4 °F /  -18 °C 30.23in /  1023.6hPa SSW 11.0mph /  17.7km/h 11.0mph /  17.7km/h 76% 0.00in /  0mm 0.0 W/m2
22:55 5.6 °F /  -14.7 °C -0.3 °F /  -17.9 °C 30.23in /  1023.6hPa SSW 12.0mph /  19.3km/h 12.0mph /  19.3km/h 76% 0.00in /  0mm 0.0 W/m2
23:00 5.4 °F /  -14.8 °C -0.8 °F /  -18.2 °C 30.22in /  1023.2hPa South 11.5mph /  18.5km/h 11.5mph /  18.5km/h 75% 0.00in /  0mm 0.0 W/m2
23:04 5.4 °F /  -14.8 °C -0.5 °F /  -18.1 °C 30.22in /  1023.2hPa SW 11.5mph /  18.5km/h 11.5mph /  18.5km/h 76% 0.00in /  0mm 0.0 W/m2
23:05 5.3 °F /  -14.8 °C -0.6 °F /  -18.1 °C 30.22in /  1023.2hPa SW 9.2mph /  14.8km/h 9.2mph /  14.8km/h 76% 0.00in /  0mm 0.0 W/m2
23:09 5.3 °F /  -14.8 °C -0.6 °F /  -18.1 °C 30.22in /  1023.2hPa South 12.7mph /  20.4km/h 12.7mph /  20.4km/h 76% 0.00in /  0mm 0.0 W/m2
23:14 5.3 °F /  -14.8 °C -0.6 °F /  -18.1 °C 30.22in /  1023.2hPa SSW 9.2mph /  14.8km/h 9.2mph /  14.8km/h 76% 0.00in /  0mm 0.0 W/m2
23:16 5.3 °F /  -14.8 °C -0.6 °F /  -18.1 °C 30.22in /  1023.2hPa SSW 11.5mph /  18.5km/h 11.5mph /  18.5km/h 76% 0.00in /  0mm 0.0 W/m2
23:19 5.3 °F /  -14.8 °C -0.6 °F /  -18.1 °C 30.22in /  1023.2hPa SW 11.5mph /  18.5km/h 11.5mph /  18.5km/h 76% 0.00in /  0mm 0.0 W/m2
23:22 5.4 °F /  -14.8 °C -0.5 °F /  -18.1 °C 30.22in /  1023.2hPa SSW 11.5mph /  18.5km/h 11.5mph /  18.5km/h 76% 0.00in /  0mm 0.0 W/m2
23:25 5.4 °F /  -14.8 °C -0.5 °F /  -18.1 °C 30.22in /  1023.2hPa SSW 8.1mph /  13km/h 8.1mph /  13km/h 76% 0.00in /  0mm 0.0 W/m2
23:30 5.5 °F /  -14.7 °C -0.4 °F /  -18 °C 30.21in /  1022.9hPa SSW 10.4mph /  16.7km/h 10.4mph /  16.7km/h 76% 0.00in /  0mm 0.0 W/m2
23:35 5.6 °F /  -14.7 °C -0.3 °F /  -17.9 °C 30.21in /  1022.9hPa South 11.5mph /  18.5km/h 11.5mph /  18.5km/h 76% 0.00in /  0mm 0.0 W/m2
23:36 5.5 °F /  -14.7 °C -0.4 °F /  -18 °C 30.21in /  1022.9hPa SW 11.5mph /  18.5km/h 11.5mph /  18.5km/h 76% 0.00in /  0mm 0.0 W/m2
23:37 5.5 °F /  -14.7 °C -0.4 °F /  -18 °C 30.21in /  1022.9hPa WSW 11.5mph /  18.5km/h 11.5mph /  18.5km/h 76% 0.00in /  0mm 0.0 W/m2
23:42 5.6 °F /  -14.7 °C -0.3 °F /  -17.9 °C 30.21in /  1022.9hPa SSW 9.2mph /  14.8km/h 9.2mph /  14.8km/h 76% 0.00in /  0mm 0.0 W/m2
23:43 5.6 °F /  -14.7 °C -0.3 °F /  -17.9 °C 30.21in /  1022.9hPa SSW 6.9mph /  11.1km/h 6.9mph /  11.1km/h 76% 0.00in /  0mm 0.0 W/m2
23:48 5.6 °F /  -14.7 °C -0.3 °F /  -17.9 °C 30.20in /  1022.6hPa SSW 6.9mph /  11.1km/h 6.9mph /  11.1km/h 76% 0.00in /  0mm 0.0 W/m2
23:49 5.7 °F /  -14.6 °C -0.2 °F /  -17.9 °C 30.20in /  1022.6hPa SSW 5.8mph /  9.3km/h 5.8mph /  9.3km/h 76% 0.00in /  0mm 0.0 W/m2
23:54 5.6 °F /  -14.7 °C -0.3 °F /  -17.9 °C 30.20in /  1022.6hPa SSW 5.8mph /  9.3km/h 5.8mph /  9.3km/h 76% 0.00in /  0mm 0.0 W/m2
23:55 5.6 °F /  -14.7 °C -0.3 °F /  -17.9 °C 30.20in /  1022.6hPa SSW 3.5mph /  5.6km/h   76% 0.00in /  0mm 0.0 W/m2
23:58 5.6 °F /  -14.7 °C -0.3 °F /  -17.9 °C 30.20in /  1022.6hPa SW 4.6mph /  7.4km/h 4.6mph /  7.4km/h 76% 0.00in /  0mm 0.0 W/m2
Bourbonnais, Illinois, USA
Compliments of Weather Underground - 4 mb